<?xml version="1.0" encoding="UTF-8" standalone="no" ?>
<gpx xmlns="http://www.topografix.com/GPX/1/1" xmlns:xsi="http://www.w3.org/2001/XMLSchema-instance" xsi:schemaLocation="http://www.topografix.com/GPX/1/1 http://www.topografix.com/GPX/1/1/gpx.xsd" version="1.1" creator="VisuGPX - https://www.visugpx.com">
  <metadata>
    <name>CORCELLES MES MONTS</name>
    <desc><![CDATA[Superbe randonnée avec peu de dénivelé et de très bons chemin et de belles vues.]]></desc>
  </metadata>
  <trk>
    <name><![CDATA[20171125111928-5rbc1]]></name>
    <trkseg>
      <trkpt lat="47.29413" lon="4.93843">
        <ele>475</ele>
      </trkpt>
      <trkpt lat="47.29442" lon="4.93794">
        <ele>478</ele>
      </trkpt>
      <trkpt lat="47.29455" lon="4.93784">
        <ele>479</ele>
      </trkpt>
      <trkpt lat="47.29467" lon="4.93765">
        <ele>479</ele>
      </trkpt>
      <trkpt lat="47.29472" lon="4.93739">
        <ele>484</ele>
      </trkpt>
      <trkpt lat="47.29485" lon="4.93717">
        <ele>485</ele>
      </trkpt>
      <trkpt lat="47.29504" lon="4.93709">
        <ele>486</ele>
      </trkpt>
      <trkpt lat="47.29538" lon="4.93713">
        <ele>487</ele>
      </trkpt>
      <trkpt lat="47.29599" lon="4.93698">
        <ele>491</ele>
      </trkpt>
      <trkpt lat="47.29614" lon="4.93719">
        <ele>489</ele>
      </trkpt>
      <trkpt lat="47.29633" lon="4.93734">
        <ele>488</ele>
      </trkpt>
      <trkpt lat="47.29652" lon="4.93708">
        <ele>490</ele>
      </trkpt>
      <trkpt lat="47.29677" lon="4.93704">
        <ele>490</ele>
      </trkpt>
      <trkpt lat="47.297" lon="4.937">
        <ele>490</ele>
      </trkpt>
      <trkpt lat="47.29713" lon="4.9369">
        <ele>490</ele>
      </trkpt>
      <trkpt lat="47.29726" lon="4.93687">
        <ele>491</ele>
      </trkpt>
      <trkpt lat="47.29749" lon="4.93677">
        <ele>492</ele>
      </trkpt>
      <trkpt lat="47.2978" lon="4.93652">
        <ele>495</ele>
      </trkpt>
      <trkpt lat="47.29823" lon="4.936">
        <ele>496</ele>
      </trkpt>
      <trkpt lat="47.29849" lon="4.93562">
        <ele>497</ele>
      </trkpt>
      <trkpt lat="47.29873" lon="4.93529">
        <ele>498</ele>
      </trkpt>
      <trkpt lat="47.29925" lon="4.93475">
        <ele>492</ele>
      </trkpt>
      <trkpt lat="47.29956" lon="4.93406">
        <ele>499</ele>
      </trkpt>
      <trkpt lat="47.29972" lon="4.93321">
        <ele>502</ele>
      </trkpt>
      <trkpt lat="47.29981" lon="4.93222">
        <ele>506</ele>
      </trkpt>
      <trkpt lat="47.29988" lon="4.93177">
        <ele>504</ele>
      </trkpt>
      <trkpt lat="47.30001" lon="4.93132">
        <ele>497</ele>
      </trkpt>
      <trkpt lat="47.30035" lon="4.93051">
        <ele>507</ele>
      </trkpt>
      <trkpt lat="47.30064" lon="4.92948">
        <ele>509</ele>
      </trkpt>
      <trkpt lat="47.30057" lon="4.92858">
        <ele>506</ele>
      </trkpt>
      <trkpt lat="47.3005" lon="4.92811">
        <ele>503</ele>
      </trkpt>
      <trkpt lat="47.30042" lon="4.92772">
        <ele>504</ele>
        <time>2017-11-21T13:25:17Z</time>
      </trkpt>
      <trkpt lat="47.30038" lon="4.92758">
        <ele>504</ele>
        <time>2017-11-21T13:27:33Z</time>
      </trkpt>
      <trkpt lat="47.30036" lon="4.92745">
        <ele>501</ele>
        <time>2017-11-21T13:27:44Z</time>
      </trkpt>
      <trkpt lat="47.30033" lon="4.92731">
        <ele>501</ele>
        <time>2017-11-21T13:27:52Z</time>
      </trkpt>
      <trkpt lat="47.30029" lon="4.92719">
        <ele>501</ele>
        <time>2017-11-21T13:27:59Z</time>
      </trkpt>
      <trkpt lat="47.30029" lon="4.92706">
        <ele>499</ele>
        <time>2017-11-21T13:28:09Z</time>
      </trkpt>
      <trkpt lat="47.30024" lon="4.92694">
        <ele>500</ele>
        <time>2017-11-21T13:28:14Z</time>
      </trkpt>
      <trkpt lat="47.30021" lon="4.9268">
        <ele>500</ele>
        <time>2017-11-21T13:28:21Z</time>
      </trkpt>
      <trkpt lat="47.30015" lon="4.92669">
        <ele>502</ele>
        <time>2017-11-21T13:28:28Z</time>
      </trkpt>
      <trkpt lat="47.30012" lon="4.92657">
        <ele>499</ele>
        <time>2017-11-21T13:28:37Z</time>
      </trkpt>
      <trkpt lat="47.30008" lon="4.92643">
        <ele>497</ele>
        <time>2017-11-21T13:28:43Z</time>
      </trkpt>
      <trkpt lat="47.30004" lon="4.9263">
        <ele>495</ele>
        <time>2017-11-21T13:28:50Z</time>
      </trkpt>
      <trkpt lat="47.3" lon="4.92616">
        <ele>495</ele>
        <time>2017-11-21T13:29:01Z</time>
      </trkpt>
      <trkpt lat="47.29996" lon="4.92603">
        <ele>508</ele>
        <time>2017-11-21T13:29:08Z</time>
      </trkpt>
      <trkpt lat="47.29993" lon="4.9259">
        <ele>504</ele>
        <time>2017-11-21T13:29:15Z</time>
      </trkpt>
      <trkpt lat="47.29988" lon="4.92578">
        <ele>500</ele>
        <time>2017-11-21T13:29:20Z</time>
      </trkpt>
      <trkpt lat="47.29983" lon="4.92567">
        <ele>501</ele>
        <time>2017-11-21T13:29:27Z</time>
      </trkpt>
      <trkpt lat="47.29978" lon="4.92556">
        <ele>501</ele>
        <time>2017-11-21T13:29:36Z</time>
      </trkpt>
      <trkpt lat="47.2997" lon="4.92547">
        <ele>501</ele>
        <time>2017-11-21T13:29:46Z</time>
      </trkpt>
      <trkpt lat="47.29962" lon="4.9254">
        <ele>501</ele>
        <time>2017-11-21T13:30:06Z</time>
      </trkpt>
      <trkpt lat="47.29954" lon="4.92532">
        <ele>502</ele>
        <time>2017-11-21T13:30:14Z</time>
      </trkpt>
      <trkpt lat="47.29947" lon="4.92523">
        <ele>502</ele>
        <time>2017-11-21T13:30:21Z</time>
      </trkpt>
      <trkpt lat="47.2994" lon="4.92514">
        <ele>502</ele>
        <time>2017-11-21T13:30:26Z</time>
      </trkpt>
      <trkpt lat="47.29933" lon="4.92505">
        <ele>502</ele>
        <time>2017-11-21T13:30:33Z</time>
      </trkpt>
      <trkpt lat="47.29929" lon="4.92492">
        <ele>497</ele>
        <time>2017-11-21T13:30:42Z</time>
      </trkpt>
      <trkpt lat="47.29923" lon="4.92479">
        <ele>495</ele>
        <time>2017-11-21T13:30:51Z</time>
      </trkpt>
      <trkpt lat="47.29916" lon="4.92469">
        <ele>506</ele>
        <time>2017-11-21T13:31:00Z</time>
      </trkpt>
      <trkpt lat="47.29909" lon="4.9246">
        <ele>506</ele>
        <time>2017-11-21T13:31:07Z</time>
      </trkpt>
      <trkpt lat="47.29902" lon="4.9245">
        <ele>505</ele>
        <time>2017-11-21T13:31:15Z</time>
      </trkpt>
      <trkpt lat="47.29897" lon="4.92438">
        <ele>504</ele>
        <time>2017-11-21T13:31:24Z</time>
      </trkpt>
      <trkpt lat="47.29891" lon="4.92427">
        <ele>504</ele>
        <time>2017-11-21T13:31:33Z</time>
      </trkpt>
      <trkpt lat="47.29886" lon="4.92415">
        <ele>497</ele>
        <time>2017-11-21T13:31:42Z</time>
      </trkpt>
      <trkpt lat="47.29882" lon="4.92402">
        <ele>497</ele>
        <time>2017-11-21T13:31:48Z</time>
      </trkpt>
      <trkpt lat="47.29875" lon="4.92393">
        <ele>497</ele>
        <time>2017-11-21T13:31:56Z</time>
      </trkpt>
      <trkpt lat="47.29867" lon="4.92386">
        <ele>498</ele>
        <time>2017-11-21T13:32:03Z</time>
      </trkpt>
      <trkpt lat="47.2986" lon="4.92377">
        <ele>498</ele>
        <time>2017-11-21T13:32:08Z</time>
      </trkpt>
      <trkpt lat="47.29852" lon="4.92369">
        <ele>498</ele>
        <time>2017-11-21T13:32:18Z</time>
      </trkpt>
      <trkpt lat="47.29847" lon="4.92357">
        <ele>497</ele>
        <time>2017-11-21T13:32:26Z</time>
      </trkpt>
      <trkpt lat="47.29839" lon="4.92347">
        <ele>497</ele>
        <time>2017-11-21T13:32:35Z</time>
      </trkpt>
      <trkpt lat="47.2983" lon="4.9234">
        <ele>500</ele>
        <time>2017-11-21T13:32:42Z</time>
      </trkpt>
      <trkpt lat="47.29823" lon="4.9233">
        <ele>497</ele>
        <time>2017-11-21T13:32:51Z</time>
      </trkpt>
      <trkpt lat="47.29815" lon="4.92324">
        <ele>496</ele>
        <time>2017-11-21T13:32:58Z</time>
      </trkpt>
      <trkpt lat="47.29806" lon="4.92318">
        <ele>496</ele>
        <time>2017-11-21T13:33:07Z</time>
      </trkpt>
      <trkpt lat="47.29797" lon="4.9231">
        <ele>496</ele>
        <time>2017-11-21T13:33:15Z</time>
      </trkpt>
      <trkpt lat="47.29789" lon="4.92302">
        <ele>496</ele>
        <time>2017-11-21T13:33:26Z</time>
      </trkpt>
      <trkpt lat="47.2978" lon="4.92296">
        <ele>496</ele>
        <time>2017-11-21T13:33:35Z</time>
      </trkpt>
      <trkpt lat="47.29768" lon="4.92294">
        <ele>496</ele>
        <time>2017-11-21T13:33:42Z</time>
      </trkpt>
      <trkpt lat="47.29759" lon="4.92293">
        <ele>496</ele>
        <time>2017-11-21T13:33:50Z</time>
      </trkpt>
      <trkpt lat="47.29751" lon="4.92287">
        <ele>496</ele>
        <time>2017-11-21T13:33:59Z</time>
      </trkpt>
      <trkpt lat="47.29741" lon="4.92283">
        <ele>497</ele>
        <time>2017-11-21T13:34:07Z</time>
      </trkpt>
      <trkpt lat="47.29732" lon="4.92277">
        <ele>496</ele>
        <time>2017-11-21T13:34:18Z</time>
      </trkpt>
      <trkpt lat="47.29722" lon="4.92274">
        <ele>496</ele>
        <time>2017-11-21T13:34:26Z</time>
      </trkpt>
      <trkpt lat="47.29712" lon="4.92275">
        <ele>497</ele>
        <time>2017-11-21T13:34:30Z</time>
      </trkpt>
      <trkpt lat="47.29703" lon="4.9228">
        <ele>497</ele>
        <time>2017-11-21T13:34:34Z</time>
      </trkpt>
      <trkpt lat="47.29693" lon="4.92282">
        <ele>497</ele>
        <time>2017-11-21T13:34:42Z</time>
      </trkpt>
      <trkpt lat="47.29684" lon="4.92284">
        <ele>497</ele>
        <time>2017-11-21T13:34:52Z</time>
      </trkpt>
      <trkpt lat="47.29674" lon="4.92285">
        <ele>497</ele>
        <time>2017-11-21T13:35:01Z</time>
      </trkpt>
      <trkpt lat="47.29664" lon="4.92283">
        <ele>496</ele>
        <time>2017-11-21T13:35:08Z</time>
      </trkpt>
      <trkpt lat="47.29655" lon="4.92278">
        <ele>495</ele>
        <time>2017-11-21T13:35:18Z</time>
      </trkpt>
      <trkpt lat="47.29644" lon="4.92279">
        <ele>495</ele>
        <time>2017-11-21T13:35:24Z</time>
      </trkpt>
      <trkpt lat="47.29634" lon="4.92278">
        <ele>495</ele>
        <time>2017-11-21T13:35:34Z</time>
      </trkpt>
      <trkpt lat="47.29624" lon="4.92275">
        <ele>494</ele>
        <time>2017-11-21T13:35:42Z</time>
      </trkpt>
      <trkpt lat="47.29614" lon="4.92273">
        <ele>493</ele>
        <time>2017-11-21T13:35:49Z</time>
      </trkpt>
      <trkpt lat="47.29603" lon="4.92273">
        <ele>492</ele>
        <time>2017-11-21T13:35:57Z</time>
      </trkpt>
      <trkpt lat="47.29592" lon="4.92275">
        <ele>491</ele>
        <time>2017-11-21T13:36:05Z</time>
      </trkpt>
      <trkpt lat="47.29583" lon="4.92278">
        <ele>493</ele>
        <time>2017-11-21T13:36:13Z</time>
      </trkpt>
      <trkpt lat="47.29574" lon="4.92276">
        <ele>493</ele>
        <time>2017-11-21T13:36:22Z</time>
      </trkpt>
      <trkpt lat="47.29563" lon="4.92278">
        <ele>495</ele>
        <time>2017-11-21T13:36:31Z</time>
      </trkpt>
      <trkpt lat="47.29553" lon="4.92275">
        <ele>495</ele>
        <time>2017-11-21T13:36:41Z</time>
      </trkpt>
      <trkpt lat="47.29544" lon="4.92274">
        <ele>496</ele>
        <time>2017-11-21T13:36:46Z</time>
      </trkpt>
      <trkpt lat="47.29536" lon="4.92269">
        <ele>496</ele>
        <time>2017-11-21T13:37:03Z</time>
      </trkpt>
      <trkpt lat="47.29526" lon="4.92266">
        <ele>496</ele>
        <time>2017-11-21T13:37:09Z</time>
      </trkpt>
      <trkpt lat="47.29517" lon="4.92261">
        <ele>495</ele>
        <time>2017-11-21T13:37:14Z</time>
      </trkpt>
      <trkpt lat="47.29508" lon="4.92255">
        <ele>493</ele>
        <time>2017-11-21T13:37:21Z</time>
      </trkpt>
      <trkpt lat="47.295" lon="4.92249">
        <ele>490</ele>
        <time>2017-11-21T13:37:30Z</time>
      </trkpt>
      <trkpt lat="47.29493" lon="4.92241">
        <ele>492</ele>
        <time>2017-11-21T13:37:36Z</time>
      </trkpt>
      <trkpt lat="47.29488" lon="4.92228">
        <ele>491</ele>
        <time>2017-11-21T13:37:48Z</time>
      </trkpt>
      <trkpt lat="47.29482" lon="4.92217">
        <ele>491</ele>
        <time>2017-11-21T13:37:55Z</time>
      </trkpt>
      <trkpt lat="47.29474" lon="4.92208">
        <ele>491</ele>
        <time>2017-11-21T13:38:04Z</time>
      </trkpt>
      <trkpt lat="47.29465" lon="4.92203">
        <ele>491</ele>
        <time>2017-11-21T13:38:24Z</time>
      </trkpt>
      <trkpt lat="47.29468" lon="4.92215">
        <ele>492</ele>
        <time>2017-11-21T13:40:11Z</time>
      </trkpt>
      <trkpt lat="47.29459" lon="4.92209">
        <ele>493</ele>
        <time>2017-11-21T13:41:33Z</time>
      </trkpt>
      <trkpt lat="47.29451" lon="4.922">
        <ele>493</ele>
        <time>2017-11-21T13:41:38Z</time>
      </trkpt>
      <trkpt lat="47.29443" lon="4.92193">
        <ele>494</ele>
        <time>2017-11-21T13:41:44Z</time>
      </trkpt>
      <trkpt lat="47.29434" lon="4.92189">
        <ele>494</ele>
        <time>2017-11-21T13:41:58Z</time>
      </trkpt>
      <trkpt lat="47.29425" lon="4.9218">
        <ele>495</ele>
        <time>2017-11-21T13:42:08Z</time>
      </trkpt>
      <trkpt lat="47.29417" lon="4.92176">
        <ele>496</ele>
        <time>2017-11-21T13:42:20Z</time>
      </trkpt>
      <trkpt lat="47.29409" lon="4.92168">
        <ele>501</ele>
        <time>2017-11-21T13:42:29Z</time>
      </trkpt>
      <trkpt lat="47.29399" lon="4.92163">
        <ele>498</ele>
        <time>2017-11-21T13:42:39Z</time>
      </trkpt>
      <trkpt lat="47.29389" lon="4.92161">
        <ele>499</ele>
        <time>2017-11-21T13:42:44Z</time>
      </trkpt>
      <trkpt lat="47.2938" lon="4.92159">
        <ele>500</ele>
        <time>2017-11-21T13:42:54Z</time>
      </trkpt>
      <trkpt lat="47.29371" lon="4.92155">
        <ele>501</ele>
        <time>2017-11-21T13:43:02Z</time>
      </trkpt>
      <trkpt lat="47.29362" lon="4.9215">
        <ele>502</ele>
        <time>2017-11-21T13:43:10Z</time>
      </trkpt>
      <trkpt lat="47.29353" lon="4.92145">
        <ele>502</ele>
        <time>2017-11-21T13:43:20Z</time>
      </trkpt>
      <trkpt lat="47.29346" lon="4.92137">
        <ele>502</ele>
        <time>2017-11-21T13:43:28Z</time>
      </trkpt>
      <trkpt lat="47.29339" lon="4.92128">
        <ele>501</ele>
        <time>2017-11-21T13:43:37Z</time>
      </trkpt>
      <trkpt lat="47.2933" lon="4.92125">
        <ele>509</ele>
        <time>2017-11-21T13:43:43Z</time>
      </trkpt>
      <trkpt lat="47.29325" lon="4.92115">
        <ele>508</ele>
        <time>2017-11-21T13:43:50Z</time>
      </trkpt>
      <trkpt lat="47.29317" lon="4.92107">
        <ele>507</ele>
        <time>2017-11-21T13:43:58Z</time>
      </trkpt>
      <trkpt lat="47.29309" lon="4.921">
        <ele>507</ele>
        <time>2017-11-21T13:44:05Z</time>
      </trkpt>
      <trkpt lat="47.29301" lon="4.92092">
        <ele>508</ele>
        <time>2017-11-21T13:44:16Z</time>
      </trkpt>
      <trkpt lat="47.29292" lon="4.92086">
        <ele>508</ele>
        <time>2017-11-21T13:44:24Z</time>
      </trkpt>
      <trkpt lat="47.29283" lon="4.9208">
        <ele>499</ele>
        <time>2017-11-21T13:44:35Z</time>
      </trkpt>
      <trkpt lat="47.29275" lon="4.92073">
        <ele>500</ele>
        <time>2017-11-21T13:44:43Z</time>
      </trkpt>
      <trkpt lat="47.29265" lon="4.92067">
        <ele>500</ele>
        <time>2017-11-21T13:44:52Z</time>
      </trkpt>
      <trkpt lat="47.29257" lon="4.92063">
        <ele>500</ele>
        <time>2017-11-21T13:44:59Z</time>
      </trkpt>
      <trkpt lat="47.29247" lon="4.9206">
        <ele>501</ele>
        <time>2017-11-21T13:45:11Z</time>
      </trkpt>
      <trkpt lat="47.29236" lon="4.9206">
        <ele>501</ele>
        <time>2017-11-21T13:45:15Z</time>
      </trkpt>
      <trkpt lat="47.29226" lon="4.92058">
        <ele>500</ele>
        <time>2017-11-21T13:45:22Z</time>
      </trkpt>
      <trkpt lat="47.29217" lon="4.92057">
        <ele>500</ele>
        <time>2017-11-21T13:45:26Z</time>
      </trkpt>
      <trkpt lat="47.29207" lon="4.92057">
        <ele>499</ele>
        <time>2017-11-21T13:45:32Z</time>
      </trkpt>
      <trkpt lat="47.29197" lon="4.92056">
        <ele>499</ele>
        <time>2017-11-21T13:45:44Z</time>
      </trkpt>
      <trkpt lat="47.29189" lon="4.92052">
        <ele>499</ele>
        <time>2017-11-21T13:45:51Z</time>
      </trkpt>
      <trkpt lat="47.29179" lon="4.92052">
        <ele>499</ele>
        <time>2017-11-21T13:45:57Z</time>
      </trkpt>
      <trkpt lat="47.29168" lon="4.92042">
        <ele>497</ele>
        <time>2017-11-21T13:46:10Z</time>
      </trkpt>
      <trkpt lat="47.29156" lon="4.92044">
        <ele>500</ele>
        <time>2017-11-21T13:46:14Z</time>
      </trkpt>
      <trkpt lat="47.29148" lon="4.92048">
        <ele>501</ele>
        <time>2017-11-21T13:46:19Z</time>
      </trkpt>
      <trkpt lat="47.29137" lon="4.92049">
        <ele>501</ele>
        <time>2017-11-21T13:46:27Z</time>
      </trkpt>
      <trkpt lat="47.29127" lon="4.92048">
        <ele>501</ele>
        <time>2017-11-21T13:46:35Z</time>
      </trkpt>
      <trkpt lat="47.29118" lon="4.92047">
        <ele>502</ele>
        <time>2017-11-21T13:46:46Z</time>
      </trkpt>
      <trkpt lat="47.29109" lon="4.92042">
        <ele>501</ele>
        <time>2017-11-21T13:46:53Z</time>
      </trkpt>
      <trkpt lat="47.29099" lon="4.92038">
        <ele>501</ele>
        <time>2017-11-21T13:47:02Z</time>
      </trkpt>
      <trkpt lat="47.29088" lon="4.9203">
        <ele>500</ele>
        <time>2017-11-21T13:47:10Z</time>
      </trkpt>
      <trkpt lat="47.29079" lon="4.92028">
        <ele>507</ele>
        <time>2017-11-21T13:47:22Z</time>
      </trkpt>
      <trkpt lat="47.2907" lon="4.92029">
        <ele>508</ele>
        <time>2017-11-21T13:47:27Z</time>
      </trkpt>
      <trkpt lat="47.29059" lon="4.92027">
        <ele>509</ele>
        <time>2017-11-21T13:47:34Z</time>
      </trkpt>
      <trkpt lat="47.29051" lon="4.92022">
        <ele>509</ele>
        <time>2017-11-21T13:47:44Z</time>
      </trkpt>
      <trkpt lat="47.2904" lon="4.92015">
        <ele>510</ele>
        <time>2017-11-21T13:47:52Z</time>
      </trkpt>
      <trkpt lat="47.29032" lon="4.9201">
        <ele>511</ele>
        <time>2017-11-21T13:48:01Z</time>
      </trkpt>
      <trkpt lat="47.29022" lon="4.92004">
        <ele>512</ele>
        <time>2017-11-21T13:48:07Z</time>
      </trkpt>
      <trkpt lat="47.29012" lon="4.92001">
        <ele>512</ele>
        <time>2017-11-21T13:48:14Z</time>
      </trkpt>
      <trkpt lat="47.29002" lon="4.91997">
        <ele>509</ele>
        <time>2017-11-21T13:48:20Z</time>
      </trkpt>
      <trkpt lat="47.28994" lon="4.91992">
        <ele>512</ele>
        <time>2017-11-21T13:48:29Z</time>
      </trkpt>
      <trkpt lat="47.28986" lon="4.91984">
        <ele>512</ele>
        <time>2017-11-21T13:48:34Z</time>
      </trkpt>
      <trkpt lat="47.28979" lon="4.91975">
        <ele>511</ele>
        <time>2017-11-21T13:48:44Z</time>
      </trkpt>
      <trkpt lat="47.28976" lon="4.91962">
        <ele>510</ele>
        <time>2017-11-21T13:48:51Z</time>
      </trkpt>
      <trkpt lat="47.2897" lon="4.91951">
        <ele>510</ele>
        <time>2017-11-21T13:49:00Z</time>
      </trkpt>
      <trkpt lat="47.28963" lon="4.91941">
        <ele>509</ele>
        <time>2017-11-21T13:49:07Z</time>
      </trkpt>
      <trkpt lat="47.28956" lon="4.9193">
        <ele>509</ele>
        <time>2017-11-21T13:49:24Z</time>
      </trkpt>
      <trkpt lat="47.28948" lon="4.91924">
        <ele>509</ele>
        <time>2017-11-21T13:49:30Z</time>
      </trkpt>
      <trkpt lat="47.28939" lon="4.91914">
        <ele>502</ele>
        <time>2017-11-21T13:49:38Z</time>
      </trkpt>
      <trkpt lat="47.28931" lon="4.91907">
        <ele>503</ele>
        <time>2017-11-21T13:49:48Z</time>
      </trkpt>
      <trkpt lat="47.28922" lon="4.91903">
        <ele>504</ele>
        <time>2017-11-21T13:49:57Z</time>
      </trkpt>
      <trkpt lat="47.28914" lon="4.91897">
        <ele>507</ele>
        <time>2017-11-21T13:50:06Z</time>
      </trkpt>
      <trkpt lat="47.28906" lon="4.91889">
        <ele>506</ele>
        <time>2017-11-21T13:50:10Z</time>
      </trkpt>
      <trkpt lat="47.28897" lon="4.91884">
        <ele>506</ele>
        <time>2017-11-21T13:50:18Z</time>
      </trkpt>
      <trkpt lat="47.28887" lon="4.91879">
        <ele>506</ele>
        <time>2017-11-21T13:50:25Z</time>
      </trkpt>
      <trkpt lat="47.28878" lon="4.91874">
        <ele>506</ele>
        <time>2017-11-21T13:50:32Z</time>
      </trkpt>
      <trkpt lat="47.28869" lon="4.91871">
        <ele>506</ele>
        <time>2017-11-21T13:50:40Z</time>
      </trkpt>
      <trkpt lat="47.2886" lon="4.91865">
        <ele>506</ele>
        <time>2017-11-21T13:50:48Z</time>
      </trkpt>
      <trkpt lat="47.28851" lon="4.91863">
        <ele>506</ele>
        <time>2017-11-21T13:50:55Z</time>
      </trkpt>
      <trkpt lat="47.28841" lon="4.91861">
        <ele>506</ele>
        <time>2017-11-21T13:51:04Z</time>
      </trkpt>
      <trkpt lat="47.28831" lon="4.91859">
        <ele>508</ele>
        <time>2017-11-21T13:51:12Z</time>
      </trkpt>
      <trkpt lat="47.28822" lon="4.91859">
        <ele>508</ele>
        <time>2017-11-21T13:51:17Z</time>
      </trkpt>
      <trkpt lat="47.28812" lon="4.9186">
        <ele>509</ele>
        <time>2017-11-21T13:51:24Z</time>
      </trkpt>
      <trkpt lat="47.28802" lon="4.91857">
        <ele>509</ele>
        <time>2017-11-21T13:51:35Z</time>
      </trkpt>
      <trkpt lat="47.28793" lon="4.91857">
        <ele>509</ele>
        <time>2017-11-21T13:51:43Z</time>
      </trkpt>
      <trkpt lat="47.28784" lon="4.91859">
        <ele>509</ele>
        <time>2017-11-21T13:51:53Z</time>
      </trkpt>
      <trkpt lat="47.28774" lon="4.91859">
        <ele>509</ele>
        <time>2017-11-21T13:52:00Z</time>
      </trkpt>
      <trkpt lat="47.28764" lon="4.91857">
        <ele>508</ele>
        <time>2017-11-21T13:52:06Z</time>
      </trkpt>
      <trkpt lat="47.28755" lon="4.91855">
        <ele>508</ele>
        <time>2017-11-21T13:52:13Z</time>
      </trkpt>
      <trkpt lat="47.28745" lon="4.91857">
        <ele>509</ele>
        <time>2017-11-21T13:52:19Z</time>
      </trkpt>
      <trkpt lat="47.28736" lon="4.9186">
        <ele>510</ele>
        <time>2017-11-21T13:52:26Z</time>
      </trkpt>
      <trkpt lat="47.28727" lon="4.91859">
        <ele>510</ele>
        <time>2017-11-21T13:52:35Z</time>
      </trkpt>
      <trkpt lat="47.28717" lon="4.91858">
        <ele>511</ele>
        <time>2017-11-21T13:52:45Z</time>
      </trkpt>
      <trkpt lat="47.28708" lon="4.9186">
        <ele>511</ele>
        <time>2017-11-21T13:52:51Z</time>
      </trkpt>
      <trkpt lat="47.28699" lon="4.91861">
        <ele>511</ele>
        <time>2017-11-21T13:52:58Z</time>
      </trkpt>
      <trkpt lat="47.28689" lon="4.91859">
        <ele>510</ele>
        <time>2017-11-21T13:53:04Z</time>
      </trkpt>
      <trkpt lat="47.2868" lon="4.91858">
        <ele>510</ele>
        <time>2017-11-21T13:53:13Z</time>
      </trkpt>
      <trkpt lat="47.28671" lon="4.91857">
        <ele>509</ele>
        <time>2017-11-21T13:53:22Z</time>
      </trkpt>
      <trkpt lat="47.28661" lon="4.91854">
        <ele>510</ele>
        <time>2017-11-21T13:53:29Z</time>
      </trkpt>
      <trkpt lat="47.28652" lon="4.91848">
        <ele>510</ele>
        <time>2017-11-21T13:53:39Z</time>
      </trkpt>
      <trkpt lat="47.28642" lon="4.91847">
        <ele>511</ele>
        <time>2017-11-21T13:53:48Z</time>
      </trkpt>
      <trkpt lat="47.28632" lon="4.91846">
        <ele>512</ele>
        <time>2017-11-21T13:53:53Z</time>
      </trkpt>
      <trkpt lat="47.28623" lon="4.91849">
        <ele>513</ele>
        <time>2017-11-21T13:53:59Z</time>
      </trkpt>
      <trkpt lat="47.28613" lon="4.91845">
        <ele>512</ele>
        <time>2017-11-21T13:54:08Z</time>
      </trkpt>
      <trkpt lat="47.28605" lon="4.91841">
        <ele>512</ele>
        <time>2017-11-21T13:54:16Z</time>
      </trkpt>
      <trkpt lat="47.28596" lon="4.91835">
        <ele>511</ele>
        <time>2017-11-21T13:54:26Z</time>
      </trkpt>
      <trkpt lat="47.28584" lon="4.91834">
        <ele>508</ele>
        <time>2017-11-21T13:54:32Z</time>
      </trkpt>
      <trkpt lat="47.28575" lon="4.91833">
        <ele>506</ele>
        <time>2017-11-21T13:54:39Z</time>
      </trkpt>
      <trkpt lat="47.28565" lon="4.91832">
        <ele>505</ele>
        <time>2017-11-21T13:54:48Z</time>
      </trkpt>
      <trkpt lat="47.28555" lon="4.9183">
        <ele>504</ele>
        <time>2017-11-21T13:54:58Z</time>
      </trkpt>
      <trkpt lat="47.28546" lon="4.91828">
        <ele>504</ele>
        <time>2017-11-21T13:55:07Z</time>
      </trkpt>
      <trkpt lat="47.28536" lon="4.91829">
        <ele>504</ele>
        <time>2017-11-21T13:55:14Z</time>
      </trkpt>
      <trkpt lat="47.28527" lon="4.91829">
        <ele>505</ele>
        <time>2017-11-21T13:55:22Z</time>
      </trkpt>
      <trkpt lat="47.28517" lon="4.91828">
        <ele>506</ele>
        <time>2017-11-21T13:55:30Z</time>
      </trkpt>
      <trkpt lat="47.28507" lon="4.91829">
        <ele>507</ele>
        <time>2017-11-21T13:55:36Z</time>
      </trkpt>
      <trkpt lat="47.28497" lon="4.9183">
        <ele>509</ele>
        <time>2017-11-21T13:55:46Z</time>
      </trkpt>
      <trkpt lat="47.28488" lon="4.9183">
        <ele>508</ele>
        <time>2017-11-21T13:55:53Z</time>
      </trkpt>
      <trkpt lat="47.28478" lon="4.91828">
        <ele>507</ele>
        <time>2017-11-21T13:56:01Z</time>
      </trkpt>
      <trkpt lat="47.28468" lon="4.91829">
        <ele>506</ele>
        <time>2017-11-21T13:56:09Z</time>
      </trkpt>
      <trkpt lat="47.28458" lon="4.91832">
        <ele>507</ele>
        <time>2017-11-21T13:56:17Z</time>
      </trkpt>
      <trkpt lat="47.28448" lon="4.91831">
        <ele>507</ele>
        <time>2017-11-21T13:56:25Z</time>
      </trkpt>
      <trkpt lat="47.2844" lon="4.91825">
        <ele>508</ele>
        <time>2017-11-21T13:56:35Z</time>
      </trkpt>
      <trkpt lat="47.2843" lon="4.91822">
        <ele>509</ele>
        <time>2017-11-21T13:56:42Z</time>
      </trkpt>
      <trkpt lat="47.28422" lon="4.91816">
        <ele>509</ele>
        <time>2017-11-21T13:56:48Z</time>
      </trkpt>
      <trkpt lat="47.28414" lon="4.91809">
        <ele>512</ele>
        <time>2017-11-21T13:56:56Z</time>
      </trkpt>
      <trkpt lat="47.28406" lon="4.91802">
        <ele>511</ele>
        <time>2017-11-21T13:57:03Z</time>
      </trkpt>
      <trkpt lat="47.28398" lon="4.91796">
        <ele>510</ele>
        <time>2017-11-21T13:57:11Z</time>
      </trkpt>
      <trkpt lat="47.28389" lon="4.91788">
        <ele>510</ele>
        <time>2017-11-21T13:57:18Z</time>
      </trkpt>
      <trkpt lat="47.28379" lon="4.91786">
        <ele>510</ele>
        <time>2017-11-21T13:57:27Z</time>
      </trkpt>
      <trkpt lat="47.28371" lon="4.9178">
        <ele>510</ele>
        <time>2017-11-21T13:57:35Z</time>
      </trkpt>
      <trkpt lat="47.28362" lon="4.91773">
        <ele>509</ele>
        <time>2017-11-21T13:57:45Z</time>
      </trkpt>
      <trkpt lat="47.28353" lon="4.91766">
        <ele>509</ele>
        <time>2017-11-21T13:57:53Z</time>
      </trkpt>
      <trkpt lat="47.28344" lon="4.91762">
        <ele>508</ele>
        <time>2017-11-21T13:58:02Z</time>
      </trkpt>
      <trkpt lat="47.28334" lon="4.91759">
        <ele>507</ele>
        <time>2017-11-21T13:58:11Z</time>
      </trkpt>
      <trkpt lat="47.28325" lon="4.91756">
        <ele>511</ele>
        <time>2017-11-21T13:58:20Z</time>
      </trkpt>
      <trkpt lat="47.28314" lon="4.91753">
        <ele>513</ele>
        <time>2017-11-21T13:58:28Z</time>
      </trkpt>
      <trkpt lat="47.28305" lon="4.91751">
        <ele>515</ele>
        <time>2017-11-21T13:58:37Z</time>
      </trkpt>
      <trkpt lat="47.28297" lon="4.91745">
        <ele>504</ele>
        <time>2017-11-21T13:58:47Z</time>
      </trkpt>
      <trkpt lat="47.28288" lon="4.91746">
        <ele>505</ele>
        <time>2017-11-21T13:58:54Z</time>
      </trkpt>
      <trkpt lat="47.28279" lon="4.91748">
        <ele>506</ele>
        <time>2017-11-21T13:59:02Z</time>
      </trkpt>
      <trkpt lat="47.28267" lon="4.91752">
        <ele>517</ele>
        <time>2017-11-21T13:59:10Z</time>
      </trkpt>
      <trkpt lat="47.28258" lon="4.91754">
        <ele>516</ele>
        <time>2017-11-21T13:59:19Z</time>
      </trkpt>
      <trkpt lat="47.28249" lon="4.91762">
        <ele>519</ele>
        <time>2017-11-21T13:59:29Z</time>
      </trkpt>
      <trkpt lat="47.28241" lon="4.91767">
        <ele>521</ele>
        <time>2017-11-21T13:59:37Z</time>
      </trkpt>
      <trkpt lat="47.28231" lon="4.91767">
        <ele>522</ele>
        <time>2017-11-21T13:59:46Z</time>
      </trkpt>
      <trkpt lat="47.28221" lon="4.91766">
        <ele>523</ele>
        <time>2017-11-21T13:59:54Z</time>
      </trkpt>
      <trkpt lat="47.28211" lon="4.91768">
        <ele>524</ele>
        <time>2017-11-21T14:00:05Z</time>
      </trkpt>
      <trkpt lat="47.28201" lon="4.91768">
        <ele>524</ele>
        <time>2017-11-21T14:00:13Z</time>
      </trkpt>
      <trkpt lat="47.2819" lon="4.91771">
        <ele>524</ele>
        <time>2017-11-21T14:00:23Z</time>
      </trkpt>
      <trkpt lat="47.28181" lon="4.91773">
        <ele>524</ele>
        <time>2017-11-21T14:00:30Z</time>
      </trkpt>
      <trkpt lat="47.28171" lon="4.91772">
        <ele>523</ele>
        <time>2017-11-21T14:00:40Z</time>
      </trkpt>
      <trkpt lat="47.28162" lon="4.91775">
        <ele>525</ele>
        <time>2017-11-21T14:03:40Z</time>
      </trkpt>
      <trkpt lat="47.28171" lon="4.91769">
        <ele>523</ele>
        <time>2017-11-21T14:06:41Z</time>
      </trkpt>
      <trkpt lat="47.28162" lon="4.91775">
        <ele>525</ele>
        <time>2017-11-21T14:07:14Z</time>
      </trkpt>
      <trkpt lat="47.28153" lon="4.91775">
        <ele>526</ele>
        <time>2017-11-21T14:09:51Z</time>
      </trkpt>
      <trkpt lat="47.28143" lon="4.91773">
        <ele>526</ele>
        <time>2017-11-21T14:10:02Z</time>
      </trkpt>
      <trkpt lat="47.28135" lon="4.91769">
        <ele>526</ele>
        <time>2017-11-21T14:10:13Z</time>
      </trkpt>
      <trkpt lat="47.28125" lon="4.91766">
        <ele>526</ele>
        <time>2017-11-21T14:10:23Z</time>
      </trkpt>
      <trkpt lat="47.28115" lon="4.91765">
        <ele>526</ele>
        <time>2017-11-21T14:10:33Z</time>
      </trkpt>
      <trkpt lat="47.28106" lon="4.91764">
        <ele>525</ele>
        <time>2017-11-21T14:10:43Z</time>
      </trkpt>
      <trkpt lat="47.28097" lon="4.91761">
        <ele>524</ele>
        <time>2017-11-21T14:10:52Z</time>
      </trkpt>
      <trkpt lat="47.28087" lon="4.91761">
        <ele>523</ele>
        <time>2017-11-21T14:11:01Z</time>
      </trkpt>
      <trkpt lat="47.28078" lon="4.91759">
        <ele>523</ele>
        <time>2017-11-21T14:11:11Z</time>
      </trkpt>
      <trkpt lat="47.28068" lon="4.91757">
        <ele>524</ele>
        <time>2017-11-21T14:11:19Z</time>
      </trkpt>
      <trkpt lat="47.28059" lon="4.91754">
        <ele>525</ele>
        <time>2017-11-21T14:11:28Z</time>
      </trkpt>
      <trkpt lat="47.2805" lon="4.91751">
        <ele>525</ele>
        <time>2017-11-21T14:11:36Z</time>
      </trkpt>
      <trkpt lat="47.28041" lon="4.91747">
        <ele>514</ele>
        <time>2017-11-21T14:11:45Z</time>
      </trkpt>
      <trkpt lat="47.28034" lon="4.91738">
        <ele>513</ele>
        <time>2017-11-21T14:11:53Z</time>
      </trkpt>
      <trkpt lat="47.28028" lon="4.91727">
        <ele>513</ele>
        <time>2017-11-21T14:12:05Z</time>
      </trkpt>
      <trkpt lat="47.28023" lon="4.91716">
        <ele>512</ele>
        <time>2017-11-21T14:12:14Z</time>
      </trkpt>
      <trkpt lat="47.28012" lon="4.91716">
        <ele>512</ele>
        <time>2017-11-21T14:12:24Z</time>
      </trkpt>
      <trkpt lat="47.28004" lon="4.91725">
        <ele>514</ele>
        <time>2017-11-21T14:12:32Z</time>
      </trkpt>
      <trkpt lat="47.27996" lon="4.91732">
        <ele>514</ele>
        <time>2017-11-21T14:12:42Z</time>
      </trkpt>
      <trkpt lat="47.27988" lon="4.9174">
        <ele>514</ele>
        <time>2017-11-21T14:12:51Z</time>
      </trkpt>
      <trkpt lat="47.2798" lon="4.91746">
        <ele>513</ele>
        <time>2017-11-21T14:13:09Z</time>
      </trkpt>
      <trkpt lat="47.27972" lon="4.91756">
        <ele>518</ele>
        <time>2017-11-21T14:13:17Z</time>
      </trkpt>
      <trkpt lat="47.27966" lon="4.91768">
        <ele>518</ele>
        <time>2017-11-21T14:13:25Z</time>
      </trkpt>
      <trkpt lat="47.27962" lon="4.91782">
        <ele>518</ele>
        <time>2017-11-21T14:13:34Z</time>
      </trkpt>
      <trkpt lat="47.27956" lon="4.91795">
        <ele>518</ele>
        <time>2017-11-21T14:13:42Z</time>
      </trkpt>
      <trkpt lat="47.27951" lon="4.91809">
        <ele>518</ele>
        <time>2017-11-21T14:13:50Z</time>
      </trkpt>
      <trkpt lat="47.27947" lon="4.9182">
        <ele>517</ele>
        <time>2017-11-21T14:13:58Z</time>
      </trkpt>
      <trkpt lat="47.27942" lon="4.91834">
        <ele>521</ele>
        <time>2017-11-21T14:14:05Z</time>
      </trkpt>
      <trkpt lat="47.27939" lon="4.91847">
        <ele>521</ele>
        <time>2017-11-21T14:14:14Z</time>
      </trkpt>
      <trkpt lat="47.27937" lon="4.9186">
        <ele>522</ele>
        <time>2017-11-21T14:14:21Z</time>
      </trkpt>
      <trkpt lat="47.27935" lon="4.91875">
        <ele>523</ele>
        <time>2017-11-21T14:14:28Z</time>
      </trkpt>
      <trkpt lat="47.27933" lon="4.91888">
        <ele>522</ele>
        <time>2017-11-21T14:14:36Z</time>
      </trkpt>
      <trkpt lat="47.27931" lon="4.91902">
        <ele>521</ele>
        <time>2017-11-21T14:14:44Z</time>
      </trkpt>
      <trkpt lat="47.27932" lon="4.91917">
        <ele>520</ele>
        <time>2017-11-21T14:14:53Z</time>
      </trkpt>
      <trkpt lat="47.27934" lon="4.91932">
        <ele>522</ele>
        <time>2017-11-21T14:15:00Z</time>
      </trkpt>
      <trkpt lat="47.27939" lon="4.91944">
        <ele>524</ele>
        <time>2017-11-21T14:15:07Z</time>
      </trkpt>
      <trkpt lat="47.27941" lon="4.91959">
        <ele>524</ele>
        <time>2017-11-21T14:15:17Z</time>
      </trkpt>
      <trkpt lat="47.27945" lon="4.91971">
        <ele>524</ele>
        <time>2017-11-21T14:15:25Z</time>
      </trkpt>
      <trkpt lat="47.2795" lon="4.91982">
        <ele>525</ele>
        <time>2017-11-21T14:15:33Z</time>
      </trkpt>
      <trkpt lat="47.27953" lon="4.91996">
        <ele>525</ele>
        <time>2017-11-21T14:15:40Z</time>
      </trkpt>
      <trkpt lat="47.27956" lon="4.92009">
        <ele>521</ele>
        <time>2017-11-21T14:15:48Z</time>
      </trkpt>
      <trkpt lat="47.2796" lon="4.92023">
        <ele>521</ele>
        <time>2017-11-21T14:15:57Z</time>
      </trkpt>
      <trkpt lat="47.27965" lon="4.92034">
        <ele>522</ele>
        <time>2017-11-21T14:16:04Z</time>
      </trkpt>
      <trkpt lat="47.27968" lon="4.92048">
        <ele>521</ele>
        <time>2017-11-21T14:16:11Z</time>
      </trkpt>
      <trkpt lat="47.27975" lon="4.92058">
        <ele>522</ele>
        <time>2017-11-21T14:16:19Z</time>
      </trkpt>
      <trkpt lat="47.2798" lon="4.9207">
        <ele>523</ele>
        <time>2017-11-21T14:16:28Z</time>
      </trkpt>
      <trkpt lat="47.27987" lon="4.9208">
        <ele>525</ele>
        <time>2017-11-21T14:16:36Z</time>
      </trkpt>
      <trkpt lat="47.27994" lon="4.92089">
        <ele>524</ele>
        <time>2017-11-21T14:16:44Z</time>
      </trkpt>
      <trkpt lat="47.28003" lon="4.92096">
        <ele>532</ele>
        <time>2017-11-21T14:16:52Z</time>
      </trkpt>
      <trkpt lat="47.28011" lon="4.92104">
        <ele>533</ele>
        <time>2017-11-21T14:17:02Z</time>
      </trkpt>
      <trkpt lat="47.28019" lon="4.9211">
        <ele>534</ele>
        <time>2017-11-21T14:17:09Z</time>
      </trkpt>
      <trkpt lat="47.28028" lon="4.92118">
        <ele>535</ele>
        <time>2017-11-21T14:17:19Z</time>
      </trkpt>
      <trkpt lat="47.28035" lon="4.92126">
        <ele>536</ele>
        <time>2017-11-21T14:17:30Z</time>
      </trkpt>
      <trkpt lat="47.28043" lon="4.92134">
        <ele>536</ele>
        <time>2017-11-21T14:17:38Z</time>
      </trkpt>
      <trkpt lat="47.28052" lon="4.92141">
        <ele>538</ele>
        <time>2017-11-21T14:17:47Z</time>
      </trkpt>
      <trkpt lat="47.2806" lon="4.9215">
        <ele>539</ele>
        <time>2017-11-21T14:17:55Z</time>
      </trkpt>
      <trkpt lat="47.28067" lon="4.92159">
        <ele>540</ele>
        <time>2017-11-21T14:18:01Z</time>
      </trkpt>
      <trkpt lat="47.28074" lon="4.92167">
        <ele>537</ele>
        <time>2017-11-21T14:18:11Z</time>
      </trkpt>
      <trkpt lat="47.28079" lon="4.92178">
        <ele>536</ele>
        <time>2017-11-21T14:18:23Z</time>
      </trkpt>
      <trkpt lat="47.28086" lon="4.92187">
        <ele>546</ele>
        <time>2017-11-21T14:18:32Z</time>
      </trkpt>
      <trkpt lat="47.28095" lon="4.92194">
        <ele>546</ele>
        <time>2017-11-21T14:18:40Z</time>
      </trkpt>
      <trkpt lat="47.28102" lon="4.92203">
        <ele>546</ele>
        <time>2017-11-21T14:18:49Z</time>
      </trkpt>
      <trkpt lat="47.28109" lon="4.92212">
        <ele>546</ele>
        <time>2017-11-21T14:18:56Z</time>
      </trkpt>
      <trkpt lat="47.28117" lon="4.92219">
        <ele>546</ele>
        <time>2017-11-21T14:19:07Z</time>
      </trkpt>
      <trkpt lat="47.28125" lon="4.92227">
        <ele>547</ele>
        <time>2017-11-21T14:19:15Z</time>
      </trkpt>
      <trkpt lat="47.28131" lon="4.92239">
        <ele>547</ele>
        <time>2017-11-21T14:19:25Z</time>
      </trkpt>
      <trkpt lat="47.28141" lon="4.92244">
        <ele>549</ele>
        <time>2017-11-21T14:19:36Z</time>
      </trkpt>
      <trkpt lat="47.28148" lon="4.92253">
        <ele>543</ele>
        <time>2017-11-21T14:19:44Z</time>
      </trkpt>
      <trkpt lat="47.28157" lon="4.9226">
        <ele>545</ele>
        <time>2017-11-21T14:19:59Z</time>
      </trkpt>
      <trkpt lat="47.28166" lon="4.92269">
        <ele>544</ele>
        <time>2017-11-21T14:20:06Z</time>
      </trkpt>
      <trkpt lat="47.28173" lon="4.92278">
        <ele>555</ele>
        <time>2017-11-21T14:20:17Z</time>
      </trkpt>
      <trkpt lat="47.28181" lon="4.92287">
        <ele>555</ele>
        <time>2017-11-21T14:20:30Z</time>
      </trkpt>
      <trkpt lat="47.28187" lon="4.92299">
        <ele>554</ele>
        <time>2017-11-21T14:20:39Z</time>
      </trkpt>
      <trkpt lat="47.28194" lon="4.92311">
        <ele>554</ele>
        <time>2017-11-21T14:20:46Z</time>
      </trkpt>
      <trkpt lat="47.28202" lon="4.9232">
        <ele>555</ele>
        <time>2017-11-21T14:20:59Z</time>
      </trkpt>
      <trkpt lat="47.28209" lon="4.92328">
        <ele>556</ele>
        <time>2017-11-21T14:21:07Z</time>
      </trkpt>
      <trkpt lat="47.28217" lon="4.92336">
        <ele>549</ele>
        <time>2017-11-21T14:21:16Z</time>
      </trkpt>
      <trkpt lat="47.28226" lon="4.92346">
        <ele>551</ele>
        <time>2017-11-21T14:21:29Z</time>
      </trkpt>
      <trkpt lat="47.28233" lon="4.92353">
        <ele>552</ele>
        <time>2017-11-21T14:21:37Z</time>
      </trkpt>
      <trkpt lat="47.28241" lon="4.9236">
        <ele>551</ele>
        <time>2017-11-21T14:21:45Z</time>
      </trkpt>
      <trkpt lat="47.28248" lon="4.9237">
        <ele>550</ele>
        <time>2017-11-21T14:21:57Z</time>
      </trkpt>
      <trkpt lat="47.28255" lon="4.9238">
        <ele>563</ele>
        <time>2017-11-21T14:22:06Z</time>
      </trkpt>
      <trkpt lat="47.28262" lon="4.92389">
        <ele>562</ele>
        <time>2017-11-21T14:22:14Z</time>
      </trkpt>
      <trkpt lat="47.28267" lon="4.92401">
        <ele>561</ele>
        <time>2017-11-21T14:22:24Z</time>
      </trkpt>
      <trkpt lat="47.28274" lon="4.9241">
        <ele>561</ele>
        <time>2017-11-21T14:22:31Z</time>
      </trkpt>
      <trkpt lat="47.28282" lon="4.9242">
        <ele>555</ele>
        <time>2017-11-21T14:22:44Z</time>
      </trkpt>
      <trkpt lat="47.2829" lon="4.92426">
        <ele>556</ele>
        <time>2017-11-21T14:22:56Z</time>
      </trkpt>
      <trkpt lat="47.28296" lon="4.92436">
        <ele>556</ele>
        <time>2017-11-21T14:23:07Z</time>
      </trkpt>
      <trkpt lat="47.28301" lon="4.92447">
        <ele>556</ele>
        <time>2017-11-21T14:23:13Z</time>
      </trkpt>
      <trkpt lat="47.28307" lon="4.92458">
        <ele>555</ele>
        <time>2017-11-21T14:23:23Z</time>
      </trkpt>
      <trkpt lat="47.28316" lon="4.92463">
        <ele>556</ele>
        <time>2017-11-21T14:23:32Z</time>
      </trkpt>
      <trkpt lat="47.28324" lon="4.9247">
        <ele>555</ele>
        <time>2017-11-21T14:23:39Z</time>
      </trkpt>
      <trkpt lat="47.28331" lon="4.92479">
        <ele>555</ele>
        <time>2017-11-21T14:23:48Z</time>
      </trkpt>
      <trkpt lat="47.2834" lon="4.92485">
        <ele>564</ele>
        <time>2017-11-21T14:23:59Z</time>
      </trkpt>
      <trkpt lat="47.28347" lon="4.92495">
        <ele>563</ele>
        <time>2017-11-21T14:24:10Z</time>
      </trkpt>
      <trkpt lat="47.28354" lon="4.92503">
        <ele>560</ele>
        <time>2017-11-21T14:24:20Z</time>
      </trkpt>
      <trkpt lat="47.28363" lon="4.92512">
        <ele>561</ele>
        <time>2017-11-21T14:24:30Z</time>
      </trkpt>
      <trkpt lat="47.2837" lon="4.92521">
        <ele>562</ele>
        <time>2017-11-21T14:24:41Z</time>
      </trkpt>
      <trkpt lat="47.28377" lon="4.92532">
        <ele>563</ele>
        <time>2017-11-21T14:24:51Z</time>
      </trkpt>
      <trkpt lat="47.28385" lon="4.9254">
        <ele>564</ele>
        <time>2017-11-21T14:25:09Z</time>
      </trkpt>
      <trkpt lat="47.28393" lon="4.92547">
        <ele>564</ele>
        <time>2017-11-21T14:25:17Z</time>
      </trkpt>
      <trkpt lat="47.284" lon="4.92557">
        <ele>565</ele>
        <time>2017-11-21T14:25:27Z</time>
      </trkpt>
      <trkpt lat="47.28409" lon="4.92565">
        <ele>566</ele>
        <time>2017-11-21T14:25:39Z</time>
      </trkpt>
      <trkpt lat="47.28418" lon="4.92571">
        <ele>573</ele>
        <time>2017-11-21T14:25:52Z</time>
      </trkpt>
      <trkpt lat="47.28426" lon="4.9258">
        <ele>573</ele>
        <time>2017-11-21T14:26:01Z</time>
      </trkpt>
      <trkpt lat="47.28432" lon="4.92589">
        <ele>573</ele>
        <time>2017-11-21T14:26:24Z</time>
      </trkpt>
      <trkpt lat="47.28441" lon="4.92596">
        <ele>574</ele>
        <time>2017-11-21T14:26:32Z</time>
      </trkpt>
      <trkpt lat="47.2845" lon="4.92602">
        <ele>576</ele>
        <time>2017-11-21T14:26:42Z</time>
      </trkpt>
      <trkpt lat="47.28455" lon="4.92614">
        <ele>576</ele>
        <time>2017-11-21T14:26:56Z</time>
      </trkpt>
      <trkpt lat="47.28462" lon="4.92624">
        <ele>576</ele>
        <time>2017-11-21T14:27:20Z</time>
      </trkpt>
      <trkpt lat="47.28455" lon="4.92614">
        <ele>576</ele>
        <time>2017-11-21T14:32:37Z</time>
      </trkpt>
      <trkpt lat="47.28463" lon="4.92621">
        <ele>577</ele>
        <time>2017-11-21T14:34:16Z</time>
      </trkpt>
      <trkpt lat="47.28468" lon="4.92633">
        <ele>577</ele>
        <time>2017-11-21T14:41:20Z</time>
      </trkpt>
      <trkpt lat="47.28473" lon="4.92645">
        <ele>577</ele>
        <time>2017-11-21T14:41:35Z</time>
      </trkpt>
      <trkpt lat="47.28472" lon="4.92658">
        <ele>578</ele>
        <time>2017-11-21T14:41:46Z</time>
      </trkpt>
      <trkpt lat="47.28467" lon="4.92671">
        <ele>578</ele>
        <time>2017-11-21T14:41:59Z</time>
      </trkpt>
      <trkpt lat="47.28461" lon="4.92681">
        <ele>577</ele>
        <time>2017-11-21T14:43:09Z</time>
      </trkpt>
      <trkpt lat="47.2845" lon="4.92684">
        <ele>576</ele>
        <time>2017-11-21T14:43:17Z</time>
      </trkpt>
      <trkpt lat="47.2844" lon="4.92685">
        <ele>575</ele>
        <time>2017-11-21T14:43:28Z</time>
      </trkpt>
      <trkpt lat="47.28431" lon="4.92688">
        <ele>575</ele>
        <time>2017-11-21T14:43:40Z</time>
      </trkpt>
      <trkpt lat="47.28422" lon="4.92693">
        <ele>575</ele>
        <time>2017-11-21T14:43:49Z</time>
      </trkpt>
      <trkpt lat="47.28415" lon="4.92701">
        <ele>567</ele>
        <time>2017-11-21T14:44:00Z</time>
      </trkpt>
      <trkpt lat="47.28406" lon="4.92709">
        <ele>567</ele>
        <time>2017-11-21T14:44:10Z</time>
      </trkpt>
      <trkpt lat="47.28399" lon="4.92715">
        <ele>566</ele>
        <time>2017-11-21T14:44:20Z</time>
      </trkpt>
      <trkpt lat="47.28391" lon="4.92723">
        <ele>566</ele>
        <time>2017-11-21T14:44:27Z</time>
      </trkpt>
      <trkpt lat="47.28383" lon="4.92732">
        <ele>566</ele>
        <time>2017-11-21T14:44:39Z</time>
      </trkpt>
      <trkpt lat="47.28375" lon="4.92741">
        <ele>565</ele>
        <time>2017-11-21T14:44:46Z</time>
      </trkpt>
      <trkpt lat="47.28368" lon="4.92752">
        <ele>570</ele>
        <time>2017-11-21T14:44:56Z</time>
      </trkpt>
      <trkpt lat="47.28365" lon="4.92766">
        <ele>570</ele>
        <time>2017-11-21T14:45:03Z</time>
      </trkpt>
      <trkpt lat="47.28361" lon="4.92778">
        <ele>571</ele>
        <time>2017-11-21T14:45:10Z</time>
      </trkpt>
      <trkpt lat="47.28355" lon="4.9279">
        <ele>571</ele>
        <time>2017-11-21T14:45:19Z</time>
      </trkpt>
      <trkpt lat="47.28348" lon="4.928">
        <ele>572</ele>
        <time>2017-11-21T14:45:28Z</time>
      </trkpt>
      <trkpt lat="47.2834" lon="4.92808">
        <ele>572</ele>
        <time>2017-11-21T14:45:37Z</time>
      </trkpt>
      <trkpt lat="47.28334" lon="4.92821">
        <ele>573</ele>
        <time>2017-11-21T14:45:42Z</time>
      </trkpt>
      <trkpt lat="47.28328" lon="4.92834">
        <ele>573</ele>
        <time>2017-11-21T14:45:51Z</time>
      </trkpt>
      <trkpt lat="47.28323" lon="4.92846">
        <ele>574</ele>
        <time>2017-11-21T14:45:57Z</time>
      </trkpt>
      <trkpt lat="47.28319" lon="4.92858">
        <ele>574</ele>
        <time>2017-11-21T14:46:06Z</time>
      </trkpt>
      <trkpt lat="47.28313" lon="4.9287">
        <ele>575</ele>
        <time>2017-11-21T14:46:14Z</time>
      </trkpt>
      <trkpt lat="47.28306" lon="4.9288">
        <ele>575</ele>
        <time>2017-11-21T14:46:22Z</time>
      </trkpt>
      <trkpt lat="47.28297" lon="4.92883">
        <ele>575</ele>
        <time>2017-11-21T14:46:32Z</time>
      </trkpt>
      <trkpt lat="47.2829" lon="4.92873">
        <ele>575</ele>
        <time>2017-11-21T14:46:41Z</time>
      </trkpt>
      <trkpt lat="47.28285" lon="4.92861">
        <ele>574</ele>
        <time>2017-11-21T14:46:53Z</time>
      </trkpt>
      <trkpt lat="47.28285" lon="4.92846">
        <ele>574</ele>
        <time>2017-11-21T14:47:00Z</time>
      </trkpt>
      <trkpt lat="47.28287" lon="4.92832">
        <ele>569</ele>
        <time>2017-11-21T14:47:08Z</time>
      </trkpt>
      <trkpt lat="47.28285" lon="4.92819">
        <ele>568</ele>
        <time>2017-11-21T14:47:17Z</time>
      </trkpt>
      <trkpt lat="47.28276" lon="4.9281">
        <ele>567</ele>
        <time>2017-11-21T14:47:23Z</time>
      </trkpt>
      <trkpt lat="47.28266" lon="4.92808">
        <ele>567</ele>
        <time>2017-11-21T14:47:31Z</time>
      </trkpt>
      <trkpt lat="47.28256" lon="4.9281">
        <ele>568</ele>
        <time>2017-11-21T14:47:38Z</time>
      </trkpt>
      <trkpt lat="47.28246" lon="4.92811">
        <ele>567</ele>
        <time>2017-11-21T14:47:45Z</time>
      </trkpt>
      <trkpt lat="47.28237" lon="4.92812">
        <ele>566</ele>
        <time>2017-11-21T14:47:54Z</time>
      </trkpt>
      <trkpt lat="47.28228" lon="4.92814">
        <ele>566</ele>
        <time>2017-11-21T14:48:01Z</time>
      </trkpt>
      <trkpt lat="47.28219" lon="4.92817">
        <ele>566</ele>
        <time>2017-11-21T14:48:08Z</time>
      </trkpt>
      <trkpt lat="47.28209" lon="4.9282">
        <ele>565</ele>
        <time>2017-11-21T14:48:17Z</time>
      </trkpt>
      <trkpt lat="47.28199" lon="4.92824">
        <ele>566</ele>
        <time>2017-11-21T14:48:26Z</time>
      </trkpt>
      <trkpt lat="47.28191" lon="4.9283">
        <ele>566</ele>
        <time>2017-11-21T14:48:32Z</time>
      </trkpt>
      <trkpt lat="47.28183" lon="4.92836">
        <ele>573</ele>
        <time>2017-11-21T14:48:42Z</time>
      </trkpt>
      <trkpt lat="47.28175" lon="4.92845">
        <ele>573</ele>
        <time>2017-11-21T14:48:50Z</time>
      </trkpt>
      <trkpt lat="47.28167" lon="4.92852">
        <ele>573</ele>
        <time>2017-11-21T14:48:58Z</time>
      </trkpt>
      <trkpt lat="47.28157" lon="4.9286">
        <ele>574</ele>
        <time>2017-11-21T14:49:07Z</time>
      </trkpt>
      <trkpt lat="47.28148" lon="4.92863">
        <ele>574</ele>
        <time>2017-11-21T14:49:12Z</time>
      </trkpt>
      <trkpt lat="47.28139" lon="4.92862">
        <ele>574</ele>
        <time>2017-11-21T14:49:20Z</time>
      </trkpt>
      <trkpt lat="47.28128" lon="4.92861">
        <ele>574</ele>
        <time>2017-11-21T14:49:31Z</time>
      </trkpt>
      <trkpt lat="47.28118" lon="4.9286">
        <ele>574</ele>
        <time>2017-11-21T14:49:39Z</time>
      </trkpt>
      <trkpt lat="47.28109" lon="4.92861">
        <ele>574</ele>
        <time>2017-11-21T14:49:47Z</time>
      </trkpt>
      <trkpt lat="47.28098" lon="4.92861">
        <ele>574</ele>
        <time>2017-11-21T14:49:57Z</time>
      </trkpt>
      <trkpt lat="47.28088" lon="4.92861">
        <ele>574</ele>
        <time>2017-11-21T14:50:06Z</time>
      </trkpt>
      <trkpt lat="47.28079" lon="4.92862">
        <ele>575</ele>
        <time>2017-11-21T14:50:14Z</time>
      </trkpt>
      <trkpt lat="47.28069" lon="4.92861">
        <ele>575</ele>
        <time>2017-11-21T14:50:24Z</time>
      </trkpt>
      <trkpt lat="47.2806" lon="4.92859">
        <ele>575</ele>
        <time>2017-11-21T14:50:32Z</time>
      </trkpt>
      <trkpt lat="47.28051" lon="4.92858">
        <ele>575</ele>
        <time>2017-11-21T14:50:39Z</time>
      </trkpt>
      <trkpt lat="47.28042" lon="4.92858">
        <ele>576</ele>
        <time>2017-11-21T14:50:47Z</time>
      </trkpt>
      <trkpt lat="47.28032" lon="4.92857">
        <ele>576</ele>
        <time>2017-11-21T14:50:55Z</time>
      </trkpt>
      <trkpt lat="47.28023" lon="4.92853">
        <ele>576</ele>
        <time>2017-11-21T14:51:03Z</time>
      </trkpt>
      <trkpt lat="47.28013" lon="4.92852">
        <ele>575</ele>
        <time>2017-11-21T14:51:12Z</time>
      </trkpt>
      <trkpt lat="47.28003" lon="4.92852">
        <ele>575</ele>
        <time>2017-11-21T14:51:19Z</time>
      </trkpt>
      <trkpt lat="47.27993" lon="4.9285">
        <ele>574</ele>
        <time>2017-11-21T14:51:28Z</time>
      </trkpt>
      <trkpt lat="47.27984" lon="4.92849">
        <ele>574</ele>
        <time>2017-11-21T14:51:36Z</time>
      </trkpt>
      <trkpt lat="47.27974" lon="4.92848">
        <ele>574</ele>
        <time>2017-11-21T14:51:44Z</time>
      </trkpt>
      <trkpt lat="47.27964" lon="4.92845">
        <ele>574</ele>
        <time>2017-11-21T14:51:52Z</time>
      </trkpt>
      <trkpt lat="47.27954" lon="4.92845">
        <ele>573</ele>
        <time>2017-11-21T14:52:00Z</time>
      </trkpt>
      <trkpt lat="47.27944" lon="4.92842">
        <ele>573</ele>
        <time>2017-11-21T14:52:08Z</time>
      </trkpt>
      <trkpt lat="47.27934" lon="4.92838">
        <ele>572</ele>
        <time>2017-11-21T14:52:17Z</time>
      </trkpt>
      <trkpt lat="47.27926" lon="4.92841">
        <ele>572</ele>
        <time>2017-11-21T14:52:25Z</time>
      </trkpt>
      <trkpt lat="47.27917" lon="4.92847">
        <ele>572</ele>
        <time>2017-11-21T14:52:33Z</time>
      </trkpt>
      <trkpt lat="47.27909" lon="4.92855">
        <ele>564</ele>
        <time>2017-11-21T14:52:40Z</time>
      </trkpt>
      <trkpt lat="47.27906" lon="4.92868">
        <ele>563</ele>
        <time>2017-11-21T14:52:47Z</time>
      </trkpt>
      <trkpt lat="47.27907" lon="4.92882">
        <ele>563</ele>
        <time>2017-11-21T14:52:55Z</time>
      </trkpt>
      <trkpt lat="47.27912" lon="4.92894">
        <ele>565</ele>
        <time>2017-11-21T14:53:04Z</time>
      </trkpt>
      <trkpt lat="47.2792" lon="4.92904">
        <ele>573</ele>
        <time>2017-11-21T14:53:12Z</time>
      </trkpt>
      <trkpt lat="47.27926" lon="4.92914">
        <ele>573</ele>
        <time>2017-11-21T14:53:20Z</time>
      </trkpt>
      <trkpt lat="47.27934" lon="4.92923">
        <ele>573</ele>
        <time>2017-11-21T14:53:30Z</time>
      </trkpt>
      <trkpt lat="47.27939" lon="4.92934">
        <ele>573</ele>
        <time>2017-11-21T14:53:36Z</time>
      </trkpt>
      <trkpt lat="47.27945" lon="4.92946">
        <ele>573</ele>
        <time>2017-11-21T14:53:45Z</time>
      </trkpt>
      <trkpt lat="47.27951" lon="4.92956">
        <ele>573</ele>
        <time>2017-11-21T14:53:52Z</time>
      </trkpt>
      <trkpt lat="47.27958" lon="4.92966">
        <ele>573</ele>
        <time>2017-11-21T14:54:00Z</time>
      </trkpt>
      <trkpt lat="47.27963" lon="4.92978">
        <ele>573</ele>
        <time>2017-11-21T14:54:08Z</time>
      </trkpt>
      <trkpt lat="47.2797" lon="4.92988">
        <ele>573</ele>
        <time>2017-11-21T14:54:16Z</time>
      </trkpt>
      <trkpt lat="47.27974" lon="4.93001">
        <ele>568</ele>
        <time>2017-11-21T14:54:24Z</time>
      </trkpt>
      <trkpt lat="47.27979" lon="4.93014">
        <ele>569</ele>
        <time>2017-11-21T14:54:33Z</time>
      </trkpt>
      <trkpt lat="47.27985" lon="4.93025">
        <ele>568</ele>
        <time>2017-11-21T14:54:41Z</time>
      </trkpt>
      <trkpt lat="47.27991" lon="4.93035">
        <ele>567</ele>
        <time>2017-11-21T14:54:48Z</time>
      </trkpt>
      <trkpt lat="47.27997" lon="4.93045">
        <ele>567</ele>
        <time>2017-11-21T14:54:55Z</time>
      </trkpt>
      <trkpt lat="47.28004" lon="4.93055">
        <ele>573</ele>
        <time>2017-11-21T14:55:04Z</time>
      </trkpt>
      <trkpt lat="47.28012" lon="4.93066">
        <ele>573</ele>
        <time>2017-11-21T14:55:13Z</time>
      </trkpt>
      <trkpt lat="47.28017" lon="4.93077">
        <ele>572</ele>
        <time>2017-11-21T14:55:22Z</time>
      </trkpt>
      <trkpt lat="47.28023" lon="4.93089">
        <ele>568</ele>
        <time>2017-11-21T14:55:30Z</time>
      </trkpt>
      <trkpt lat="47.2803" lon="4.93098">
        <ele>568</ele>
        <time>2017-11-21T14:55:39Z</time>
      </trkpt>
      <trkpt lat="47.28037" lon="4.93108">
        <ele>568</ele>
        <time>2017-11-21T14:55:45Z</time>
      </trkpt>
      <trkpt lat="47.28045" lon="4.93117">
        <ele>568</ele>
        <time>2017-11-21T14:55:52Z</time>
      </trkpt>
      <trkpt lat="47.28052" lon="4.93126">
        <ele>569</ele>
        <time>2017-11-21T14:56:00Z</time>
      </trkpt>
      <trkpt lat="47.28058" lon="4.93136">
        <ele>568</ele>
        <time>2017-11-21T14:56:09Z</time>
      </trkpt>
      <trkpt lat="47.28064" lon="4.93146">
        <ele>568</ele>
        <time>2017-11-21T14:56:16Z</time>
      </trkpt>
      <trkpt lat="47.28071" lon="4.93157">
        <ele>569</ele>
        <time>2017-11-21T14:56:26Z</time>
      </trkpt>
      <trkpt lat="47.2808" lon="4.9316">
        <ele>569</ele>
        <time>2017-11-21T14:56:34Z</time>
      </trkpt>
      <trkpt lat="47.2809" lon="4.93157">
        <ele>572</ele>
        <time>2017-11-21T14:56:45Z</time>
      </trkpt>
      <trkpt lat="47.281" lon="4.93156">
        <ele>573</ele>
        <time>2017-11-21T14:56:53Z</time>
      </trkpt>
      <trkpt lat="47.28109" lon="4.93157">
        <ele>574</ele>
        <time>2017-11-21T14:56:59Z</time>
      </trkpt>
      <trkpt lat="47.28116" lon="4.93167">
        <ele>570</ele>
        <time>2017-11-21T14:57:11Z</time>
      </trkpt>
      <trkpt lat="47.28113" lon="4.9318">
        <ele>569</ele>
        <time>2017-11-21T14:57:48Z</time>
      </trkpt>
      <trkpt lat="47.2812" lon="4.93171">
        <ele>570</ele>
        <time>2017-11-21T15:01:38Z</time>
      </trkpt>
      <trkpt lat="47.28129" lon="4.93174">
        <ele>570</ele>
        <time>2017-11-21T15:01:52Z</time>
      </trkpt>
      <trkpt lat="47.28138" lon="4.93184">
        <ele>571</ele>
        <time>2017-11-21T15:02:01Z</time>
      </trkpt>
      <trkpt lat="47.28148" lon="4.93189">
        <ele>571</ele>
        <time>2017-11-21T15:02:10Z</time>
      </trkpt>
      <trkpt lat="47.28159" lon="4.93198">
        <ele>571</ele>
        <time>2017-11-21T15:02:21Z</time>
      </trkpt>
      <trkpt lat="47.28164" lon="4.93209">
        <ele>570</ele>
        <time>2017-11-21T15:02:56Z</time>
      </trkpt>
      <trkpt lat="47.28172" lon="4.9322">
        <ele>574</ele>
        <time>2017-11-21T15:03:05Z</time>
      </trkpt>
      <trkpt lat="47.28178" lon="4.9323">
        <ele>573</ele>
        <time>2017-11-21T15:03:14Z</time>
      </trkpt>
      <trkpt lat="47.28184" lon="4.93239">
        <ele>573</ele>
        <time>2017-11-21T15:03:23Z</time>
      </trkpt>
      <trkpt lat="47.2819" lon="4.9325">
        <ele>570</ele>
        <time>2017-11-21T15:03:30Z</time>
      </trkpt>
      <trkpt lat="47.2819" lon="4.93264">
        <ele>569</ele>
        <time>2017-11-21T15:03:41Z</time>
      </trkpt>
      <trkpt lat="47.28188" lon="4.93277">
        <ele>568</ele>
        <time>2017-11-21T15:03:53Z</time>
      </trkpt>
      <trkpt lat="47.28188" lon="4.93291">
        <ele>567</ele>
        <time>2017-11-21T15:04:00Z</time>
      </trkpt>
      <trkpt lat="47.28193" lon="4.93302">
        <ele>567</ele>
        <time>2017-11-21T15:04:07Z</time>
      </trkpt>
      <trkpt lat="47.28197" lon="4.93314">
        <ele>566</ele>
        <time>2017-11-21T15:04:14Z</time>
      </trkpt>
      <trkpt lat="47.28205" lon="4.93321">
        <ele>567</ele>
        <time>2017-11-21T15:04:23Z</time>
      </trkpt>
      <trkpt lat="47.28214" lon="4.9333">
        <ele>567</ele>
        <time>2017-11-21T15:04:30Z</time>
      </trkpt>
      <trkpt lat="47.28221" lon="4.93339">
        <ele>560</ele>
        <time>2017-11-21T15:04:37Z</time>
      </trkpt>
      <trkpt lat="47.28228" lon="4.93348">
        <ele>560</ele>
        <time>2017-11-21T15:04:44Z</time>
      </trkpt>
      <trkpt lat="47.28235" lon="4.93357">
        <ele>560</ele>
        <time>2017-11-21T15:04:53Z</time>
      </trkpt>
      <trkpt lat="47.28243" lon="4.93364">
        <ele>559</ele>
        <time>2017-11-21T15:05:01Z</time>
      </trkpt>
      <trkpt lat="47.28251" lon="4.93372">
        <ele>564</ele>
        <time>2017-11-21T15:05:10Z</time>
      </trkpt>
      <trkpt lat="47.2826" lon="4.93381">
        <ele>563</ele>
        <time>2017-11-21T15:05:17Z</time>
      </trkpt>
      <trkpt lat="47.28269" lon="4.93387">
        <ele>563</ele>
        <time>2017-11-21T15:05:25Z</time>
      </trkpt>
      <trkpt lat="47.28277" lon="4.93393">
        <ele>563</ele>
        <time>2017-11-21T15:05:31Z</time>
      </trkpt>
      <trkpt lat="47.28285" lon="4.93401">
        <ele>563</ele>
        <time>2017-11-21T15:05:41Z</time>
      </trkpt>
      <trkpt lat="47.28292" lon="4.9341">
        <ele>563</ele>
        <time>2017-11-21T15:05:51Z</time>
      </trkpt>
      <trkpt lat="47.28301" lon="4.93416">
        <ele>563</ele>
        <time>2017-11-21T15:05:59Z</time>
      </trkpt>
      <trkpt lat="47.28311" lon="4.93419">
        <ele>556</ele>
        <time>2017-11-21T15:06:07Z</time>
      </trkpt>
      <trkpt lat="47.2832" lon="4.93423">
        <ele>558</ele>
        <time>2017-11-21T15:06:15Z</time>
      </trkpt>
      <trkpt lat="47.2833" lon="4.93423">
        <ele>560</ele>
        <time>2017-11-21T15:06:22Z</time>
      </trkpt>
      <trkpt lat="47.28339" lon="4.93422">
        <ele>561</ele>
        <time>2017-11-21T15:06:30Z</time>
      </trkpt>
      <trkpt lat="47.28349" lon="4.93422">
        <ele>559</ele>
        <time>2017-11-21T15:06:39Z</time>
      </trkpt>
      <trkpt lat="47.2836" lon="4.93424">
        <ele>558</ele>
        <time>2017-11-21T15:06:45Z</time>
      </trkpt>
      <trkpt lat="47.28369" lon="4.93421">
        <ele>558</ele>
        <time>2017-11-21T15:06:55Z</time>
      </trkpt>
      <trkpt lat="47.28378" lon="4.93419">
        <ele>558</ele>
        <time>2017-11-21T15:07:02Z</time>
      </trkpt>
      <trkpt lat="47.28388" lon="4.93415">
        <ele>564</ele>
        <time>2017-11-21T15:07:11Z</time>
      </trkpt>
      <trkpt lat="47.28397" lon="4.93408">
        <ele>564</ele>
        <time>2017-11-21T15:07:17Z</time>
      </trkpt>
      <trkpt lat="47.28406" lon="4.93407">
        <ele>563</ele>
        <time>2017-11-21T15:07:28Z</time>
      </trkpt>
      <trkpt lat="47.28414" lon="4.934">
        <ele>564</ele>
        <time>2017-11-21T15:07:39Z</time>
      </trkpt>
      <trkpt lat="47.28422" lon="4.93391">
        <ele>565</ele>
        <time>2017-11-21T15:07:48Z</time>
      </trkpt>
      <trkpt lat="47.2843" lon="4.93381">
        <ele>566</ele>
        <time>2017-11-21T15:07:57Z</time>
      </trkpt>
      <trkpt lat="47.28439" lon="4.93377">
        <ele>566</ele>
        <time>2017-11-21T15:08:07Z</time>
      </trkpt>
      <trkpt lat="47.28448" lon="4.93376">
        <ele>566</ele>
        <time>2017-11-21T15:08:15Z</time>
      </trkpt>
      <trkpt lat="47.28459" lon="4.93374">
        <ele>566</ele>
        <time>2017-11-21T15:08:28Z</time>
      </trkpt>
      <trkpt lat="47.28468" lon="4.93375">
        <ele>566</ele>
        <time>2017-11-21T15:08:34Z</time>
      </trkpt>
      <trkpt lat="47.28477" lon="4.93373">
        <ele>566</ele>
        <time>2017-11-21T15:08:42Z</time>
      </trkpt>
      <trkpt lat="47.28487" lon="4.93374">
        <ele>566</ele>
        <time>2017-11-21T15:08:53Z</time>
      </trkpt>
      <trkpt lat="47.28497" lon="4.93376">
        <ele>566</ele>
        <time>2017-11-21T15:09:00Z</time>
      </trkpt>
      <trkpt lat="47.28506" lon="4.93375">
        <ele>567</ele>
        <time>2017-11-21T15:09:09Z</time>
      </trkpt>
      <trkpt lat="47.28509" lon="4.93363">
        <ele>568</ele>
        <time>2017-11-21T15:09:19Z</time>
      </trkpt>
      <trkpt lat="47.2851" lon="4.93349">
        <ele>569</ele>
        <time>2017-11-21T15:09:28Z</time>
      </trkpt>
      <trkpt lat="47.28508" lon="4.93336">
        <ele>569</ele>
        <time>2017-11-21T15:09:37Z</time>
      </trkpt>
      <trkpt lat="47.28507" lon="4.93322">
        <ele>572</ele>
        <time>2017-11-21T15:09:43Z</time>
      </trkpt>
      <trkpt lat="47.28507" lon="4.93308">
        <ele>573</ele>
        <time>2017-11-21T15:09:51Z</time>
      </trkpt>
      <trkpt lat="47.28508" lon="4.93293">
        <ele>574</ele>
        <time>2017-11-21T15:10:00Z</time>
      </trkpt>
      <trkpt lat="47.28509" lon="4.9328">
        <ele>574</ele>
        <time>2017-11-21T15:10:07Z</time>
      </trkpt>
      <trkpt lat="47.28509" lon="4.93265">
        <ele>575</ele>
        <time>2017-11-21T15:10:16Z</time>
      </trkpt>
      <trkpt lat="47.2851" lon="4.93251">
        <ele>576</ele>
        <time>2017-11-21T15:10:24Z</time>
      </trkpt>
      <trkpt lat="47.28511" lon="4.93237">
        <ele>578</ele>
        <time>2017-11-21T15:10:33Z</time>
      </trkpt>
      <trkpt lat="47.28514" lon="4.93223">
        <ele>578</ele>
        <time>2017-11-21T15:10:42Z</time>
      </trkpt>
      <trkpt lat="47.28513" lon="4.93209">
        <ele>579</ele>
        <time>2017-11-21T15:10:50Z</time>
      </trkpt>
      <trkpt lat="47.28515" lon="4.93195">
        <ele>579</ele>
        <time>2017-11-21T15:11:00Z</time>
      </trkpt>
      <trkpt lat="47.28514" lon="4.93182">
        <ele>580</ele>
        <time>2017-11-21T15:11:07Z</time>
      </trkpt>
      <trkpt lat="47.28514" lon="4.93167">
        <ele>580</ele>
        <time>2017-11-21T15:11:17Z</time>
      </trkpt>
      <trkpt lat="47.28515" lon="4.93153">
        <ele>582</ele>
        <time>2017-11-21T15:11:25Z</time>
      </trkpt>
      <trkpt lat="47.28516" lon="4.9314">
        <ele>582</ele>
        <time>2017-11-21T15:11:38Z</time>
      </trkpt>
      <trkpt lat="47.28515" lon="4.93125">
        <ele>583</ele>
        <time>2017-11-21T15:11:48Z</time>
      </trkpt>
      <trkpt lat="47.28517" lon="4.9311">
        <ele>583</ele>
        <time>2017-11-21T15:11:57Z</time>
      </trkpt>
      <trkpt lat="47.28516" lon="4.93096">
        <ele>583</ele>
        <time>2017-11-21T15:12:05Z</time>
      </trkpt>
      <trkpt lat="47.28517" lon="4.93083">
        <ele>584</ele>
        <time>2017-11-21T15:12:12Z</time>
      </trkpt>
      <trkpt lat="47.28518" lon="4.93068">
        <ele>584</ele>
        <time>2017-11-21T15:12:19Z</time>
      </trkpt>
      <trkpt lat="47.28519" lon="4.93055">
        <ele>585</ele>
        <time>2017-11-21T15:12:29Z</time>
      </trkpt>
      <trkpt lat="47.28521" lon="4.9304">
        <ele>585</ele>
        <time>2017-11-21T15:12:40Z</time>
      </trkpt>
      <trkpt lat="47.28521" lon="4.93026">
        <ele>585</ele>
        <time>2017-11-21T15:12:47Z</time>
      </trkpt>
      <trkpt lat="47.2852" lon="4.93013">
        <ele>585</ele>
        <time>2017-11-21T15:12:54Z</time>
      </trkpt>
      <trkpt lat="47.2852" lon="4.92998">
        <ele>585</ele>
        <time>2017-11-21T15:13:04Z</time>
      </trkpt>
      <trkpt lat="47.28522" lon="4.92984">
        <ele>585</ele>
        <time>2017-11-21T15:13:11Z</time>
      </trkpt>
      <trkpt lat="47.28521" lon="4.92971">
        <ele>586</ele>
        <time>2017-11-21T15:13:19Z</time>
      </trkpt>
      <trkpt lat="47.28523" lon="4.92957">
        <ele>586</ele>
        <time>2017-11-21T15:13:28Z</time>
      </trkpt>
      <trkpt lat="47.28524" lon="4.92942">
        <ele>586</ele>
        <time>2017-11-21T15:13:36Z</time>
      </trkpt>
      <trkpt lat="47.28526" lon="4.92929">
        <ele>586</ele>
        <time>2017-11-21T15:13:45Z</time>
      </trkpt>
      <trkpt lat="47.28527" lon="4.92915">
        <ele>586</ele>
        <time>2017-11-21T15:13:53Z</time>
      </trkpt>
      <trkpt lat="47.28527" lon="4.92902">
        <ele>586</ele>
        <time>2017-11-21T15:14:02Z</time>
      </trkpt>
      <trkpt lat="47.2853" lon="4.92915">
        <ele>586</ele>
        <time>2017-11-21T15:16:01Z</time>
      </trkpt>
      <trkpt lat="47.2854" lon="4.92913">
        <ele>586</ele>
        <time>2017-11-21T15:17:21Z</time>
      </trkpt>
      <trkpt lat="47.28549" lon="4.92912">
        <ele>587</ele>
        <time>2017-11-21T15:17:29Z</time>
      </trkpt>
      <trkpt lat="47.28558" lon="4.92914">
        <ele>587</ele>
        <time>2017-11-21T15:17:39Z</time>
      </trkpt>
      <trkpt lat="47.28568" lon="4.92912">
        <ele>588</ele>
        <time>2017-11-21T15:17:51Z</time>
      </trkpt>
      <trkpt lat="47.2858" lon="4.92914">
        <ele>589</ele>
        <time>2017-11-21T15:18:00Z</time>
      </trkpt>
      <trkpt lat="47.2859" lon="4.92916">
        <ele>589</ele>
        <time>2017-11-21T15:18:10Z</time>
      </trkpt>
      <trkpt lat="47.28599" lon="4.92917">
        <ele>589</ele>
        <time>2017-11-21T15:18:18Z</time>
      </trkpt>
      <trkpt lat="47.2861" lon="4.92917">
        <ele>589</ele>
        <time>2017-11-21T15:18:28Z</time>
      </trkpt>
      <trkpt lat="47.28619" lon="4.92919">
        <ele>589</ele>
        <time>2017-11-21T15:18:34Z</time>
      </trkpt>
      <trkpt lat="47.28629" lon="4.92919">
        <ele>588</ele>
        <time>2017-11-21T15:18:44Z</time>
      </trkpt>
      <trkpt lat="47.28639" lon="4.92919">
        <ele>588</ele>
        <time>2017-11-21T15:18:52Z</time>
      </trkpt>
      <trkpt lat="47.28648" lon="4.92921">
        <ele>588</ele>
        <time>2017-11-21T15:19:04Z</time>
      </trkpt>
      <trkpt lat="47.28658" lon="4.92917">
        <ele>587</ele>
        <time>2017-11-21T15:19:12Z</time>
      </trkpt>
      <trkpt lat="47.28667" lon="4.92916">
        <ele>587</ele>
        <time>2017-11-21T15:19:20Z</time>
      </trkpt>
      <trkpt lat="47.28677" lon="4.92919">
        <ele>586</ele>
        <time>2017-11-21T15:19:27Z</time>
      </trkpt>
      <trkpt lat="47.28685" lon="4.92927">
        <ele>586</ele>
        <time>2017-11-21T15:19:34Z</time>
      </trkpt>
      <trkpt lat="47.28696" lon="4.92926">
        <ele>586</ele>
        <time>2017-11-21T15:19:43Z</time>
      </trkpt>
      <trkpt lat="47.28705" lon="4.92923">
        <ele>585</ele>
        <time>2017-11-21T15:19:50Z</time>
      </trkpt>
      <trkpt lat="47.28712" lon="4.92914">
        <ele>584</ele>
        <time>2017-11-21T15:19:58Z</time>
      </trkpt>
      <trkpt lat="47.28716" lon="4.92902">
        <ele>584</ele>
        <time>2017-11-21T15:20:06Z</time>
      </trkpt>
      <trkpt lat="47.28721" lon="4.9289">
        <ele>584</ele>
        <time>2017-11-21T15:20:14Z</time>
      </trkpt>
      <trkpt lat="47.28727" lon="4.92876">
        <ele>584</ele>
        <time>2017-11-21T15:20:22Z</time>
      </trkpt>
      <trkpt lat="47.28733" lon="4.92865">
        <ele>583</ele>
        <time>2017-11-21T15:20:30Z</time>
      </trkpt>
      <trkpt lat="47.28738" lon="4.92851">
        <ele>583</ele>
        <time>2017-11-21T15:20:39Z</time>
      </trkpt>
      <trkpt lat="47.28742" lon="4.92839">
        <ele>583</ele>
        <time>2017-11-21T15:20:46Z</time>
      </trkpt>
      <trkpt lat="47.28747" lon="4.92826">
        <ele>582</ele>
        <time>2017-11-21T15:20:55Z</time>
      </trkpt>
      <trkpt lat="47.28753" lon="4.92815">
        <ele>580</ele>
        <time>2017-11-21T15:21:03Z</time>
      </trkpt>
      <trkpt lat="47.28759" lon="4.92804">
        <ele>579</ele>
        <time>2017-11-21T15:21:20Z</time>
      </trkpt>
      <trkpt lat="47.28761" lon="4.92791">
        <ele>579</ele>
        <time>2017-11-21T15:23:02Z</time>
      </trkpt>
      <trkpt lat="47.28753" lon="4.92797">
        <ele>579</ele>
        <time>2017-11-21T15:23:24Z</time>
      </trkpt>
      <trkpt lat="47.28755" lon="4.9281">
        <ele>579</ele>
        <time>2017-11-21T15:23:36Z</time>
      </trkpt>
      <trkpt lat="47.28763" lon="4.92802">
        <ele>579</ele>
        <time>2017-11-21T15:26:43Z</time>
      </trkpt>
      <trkpt lat="47.28768" lon="4.9279">
        <ele>579</ele>
        <time>2017-11-21T15:26:54Z</time>
      </trkpt>
      <trkpt lat="47.28772" lon="4.92775">
        <ele>579</ele>
        <time>2017-11-21T15:27:04Z</time>
      </trkpt>
      <trkpt lat="47.28778" lon="4.92764">
        <ele>578</ele>
        <time>2017-11-21T15:27:19Z</time>
      </trkpt>
      <trkpt lat="47.28786" lon="4.92758">
        <ele>578</ele>
        <time>2017-11-21T15:27:37Z</time>
      </trkpt>
      <trkpt lat="47.28795" lon="4.92753">
        <ele>577</ele>
        <time>2017-11-21T15:28:21Z</time>
      </trkpt>
      <trkpt lat="47.28803" lon="4.92749">
        <ele>578</ele>
        <time>2017-11-21T15:28:28Z</time>
      </trkpt>
      <trkpt lat="47.28812" lon="4.92744">
        <ele>577</ele>
        <time>2017-11-21T15:28:33Z</time>
      </trkpt>
      <trkpt lat="47.28822" lon="4.92743">
        <ele>576</ele>
        <time>2017-11-21T15:28:43Z</time>
      </trkpt>
      <trkpt lat="47.28831" lon="4.92742">
        <ele>576</ele>
        <time>2017-11-21T15:28:53Z</time>
      </trkpt>
      <trkpt lat="47.28841" lon="4.9274">
        <ele>574</ele>
        <time>2017-11-21T15:29:01Z</time>
      </trkpt>
      <trkpt lat="47.2885" lon="4.92737">
        <ele>574</ele>
        <time>2017-11-21T15:29:08Z</time>
      </trkpt>
      <trkpt lat="47.2886" lon="4.92733">
        <ele>573</ele>
        <time>2017-11-21T15:29:16Z</time>
      </trkpt>
      <trkpt lat="47.28869" lon="4.92734">
        <ele>573</ele>
        <time>2017-11-21T15:29:24Z</time>
      </trkpt>
      <trkpt lat="47.28878" lon="4.92732">
        <ele>573</ele>
        <time>2017-11-21T15:29:32Z</time>
      </trkpt>
      <trkpt lat="47.28888" lon="4.92734">
        <ele>572</ele>
        <time>2017-11-21T15:29:40Z</time>
      </trkpt>
      <trkpt lat="47.28898" lon="4.92735">
        <ele>571</ele>
        <time>2017-11-21T15:29:50Z</time>
      </trkpt>
      <trkpt lat="47.28908" lon="4.92736">
        <ele>570</ele>
        <time>2017-11-21T15:29:57Z</time>
      </trkpt>
      <trkpt lat="47.28918" lon="4.92734">
        <ele>569</ele>
        <time>2017-11-21T15:30:04Z</time>
      </trkpt>
      <trkpt lat="47.28928" lon="4.92735">
        <ele>570</ele>
        <time>2017-11-21T15:30:13Z</time>
      </trkpt>
      <trkpt lat="47.28938" lon="4.92737">
        <ele>570</ele>
        <time>2017-11-21T15:30:21Z</time>
      </trkpt>
      <trkpt lat="47.28947" lon="4.92741">
        <ele>571</ele>
        <time>2017-11-21T15:30:28Z</time>
      </trkpt>
      <trkpt lat="47.28957" lon="4.92745">
        <ele>571</ele>
        <time>2017-11-21T15:30:36Z</time>
      </trkpt>
      <trkpt lat="47.28966" lon="4.92749">
        <ele>571</ele>
        <time>2017-11-21T15:30:46Z</time>
      </trkpt>
      <trkpt lat="47.28976" lon="4.92754">
        <ele>564</ele>
        <time>2017-11-21T15:30:55Z</time>
      </trkpt>
      <trkpt lat="47.28984" lon="4.92761">
        <ele>565</ele>
        <time>2017-11-21T15:31:03Z</time>
      </trkpt>
      <trkpt lat="47.28991" lon="4.92769">
        <ele>564</ele>
        <time>2017-11-21T15:31:11Z</time>
      </trkpt>
      <trkpt lat="47.29001" lon="4.92773">
        <ele>568</ele>
        <time>2017-11-21T15:31:20Z</time>
      </trkpt>
      <trkpt lat="47.29009" lon="4.9278">
        <ele>567</ele>
        <time>2017-11-21T15:31:26Z</time>
      </trkpt>
      <trkpt lat="47.29016" lon="4.92788">
        <ele>567</ele>
        <time>2017-11-21T15:31:33Z</time>
      </trkpt>
      <trkpt lat="47.29025" lon="4.92794">
        <ele>566</ele>
        <time>2017-11-21T15:31:41Z</time>
      </trkpt>
      <trkpt lat="47.29034" lon="4.92802">
        <ele>566</ele>
        <time>2017-11-21T15:31:49Z</time>
      </trkpt>
      <trkpt lat="47.29042" lon="4.92808">
        <ele>567</ele>
        <time>2017-11-21T15:31:57Z</time>
      </trkpt>
      <trkpt lat="47.29051" lon="4.92813">
        <ele>567</ele>
        <time>2017-11-21T15:32:04Z</time>
      </trkpt>
      <trkpt lat="47.2906" lon="4.92815">
        <ele>567</ele>
        <time>2017-11-21T15:32:10Z</time>
      </trkpt>
      <trkpt lat="47.29068" lon="4.92824">
        <ele>568</ele>
        <time>2017-11-21T15:32:18Z</time>
      </trkpt>
      <trkpt lat="47.29075" lon="4.92833">
        <ele>568</ele>
        <time>2017-11-21T15:32:27Z</time>
      </trkpt>
      <trkpt lat="47.29085" lon="4.92837">
        <ele>568</ele>
        <time>2017-11-21T15:32:34Z</time>
      </trkpt>
      <trkpt lat="47.29094" lon="4.92843">
        <ele>568</ele>
        <time>2017-11-21T15:32:42Z</time>
      </trkpt>
      <trkpt lat="47.29101" lon="4.92852">
        <ele>568</ele>
        <time>2017-11-21T15:32:49Z</time>
      </trkpt>
      <trkpt lat="47.29108" lon="4.92863">
        <ele>568</ele>
        <time>2017-11-21T15:32:58Z</time>
      </trkpt>
      <trkpt lat="47.29114" lon="4.92873">
        <ele>568</ele>
        <time>2017-11-21T15:33:06Z</time>
      </trkpt>
      <trkpt lat="47.29121" lon="4.92882">
        <ele>568</ele>
        <time>2017-11-21T15:33:14Z</time>
      </trkpt>
      <trkpt lat="47.29128" lon="4.92893">
        <ele>568</ele>
        <time>2017-11-21T15:33:21Z</time>
      </trkpt>
      <trkpt lat="47.29136" lon="4.92903">
        <ele>569</ele>
        <time>2017-11-21T15:33:29Z</time>
      </trkpt>
      <trkpt lat="47.29142" lon="4.92913">
        <ele>570</ele>
        <time>2017-11-21T15:33:36Z</time>
      </trkpt>
      <trkpt lat="47.29146" lon="4.92926">
        <ele>564</ele>
        <time>2017-11-21T15:33:45Z</time>
      </trkpt>
      <trkpt lat="47.29152" lon="4.92937">
        <ele>563</ele>
        <time>2017-11-21T15:33:52Z</time>
      </trkpt>
      <trkpt lat="47.29155" lon="4.92951">
        <ele>561</ele>
        <time>2017-11-21T15:34:03Z</time>
      </trkpt>
      <trkpt lat="47.29162" lon="4.92962">
        <ele>561</ele>
        <time>2017-11-21T15:34:09Z</time>
      </trkpt>
      <trkpt lat="47.29168" lon="4.92974">
        <ele>571</ele>
        <time>2017-11-21T15:34:16Z</time>
      </trkpt>
      <trkpt lat="47.29174" lon="4.92985">
        <ele>569</ele>
        <time>2017-11-21T15:34:25Z</time>
      </trkpt>
      <trkpt lat="47.2918" lon="4.92996">
        <ele>569</ele>
        <time>2017-11-21T15:34:33Z</time>
      </trkpt>
      <trkpt lat="47.29185" lon="4.93008">
        <ele>565</ele>
        <time>2017-11-21T15:34:41Z</time>
      </trkpt>
      <trkpt lat="47.2919" lon="4.93021">
        <ele>565</ele>
        <time>2017-11-21T15:34:50Z</time>
      </trkpt>
      <trkpt lat="47.29195" lon="4.93032">
        <ele>564</ele>
        <time>2017-11-21T15:34:57Z</time>
      </trkpt>
      <trkpt lat="47.29199" lon="4.93044">
        <ele>564</ele>
        <time>2017-11-21T15:35:05Z</time>
      </trkpt>
      <trkpt lat="47.29205" lon="4.93056">
        <ele>564</ele>
        <time>2017-11-21T15:35:14Z</time>
      </trkpt>
      <trkpt lat="47.29211" lon="4.93067">
        <ele>564</ele>
        <time>2017-11-21T15:35:21Z</time>
      </trkpt>
      <trkpt lat="47.29216" lon="4.93078">
        <ele>564</ele>
        <time>2017-11-21T15:35:29Z</time>
      </trkpt>
      <trkpt lat="47.29222" lon="4.9309">
        <ele>557</ele>
        <time>2017-11-21T15:35:37Z</time>
      </trkpt>
      <trkpt lat="47.29227" lon="4.93101">
        <ele>557</ele>
        <time>2017-11-21T15:35:45Z</time>
      </trkpt>
      <trkpt lat="47.29235" lon="4.9311">
        <ele>557</ele>
        <time>2017-11-21T15:35:52Z</time>
      </trkpt>
      <trkpt lat="47.29243" lon="4.9312">
        <ele>556</ele>
        <time>2017-11-21T15:36:02Z</time>
      </trkpt>
      <trkpt lat="47.29249" lon="4.93131">
        <ele>555</ele>
        <time>2017-11-21T15:36:09Z</time>
      </trkpt>
      <trkpt lat="47.29254" lon="4.93142">
        <ele>564</ele>
        <time>2017-11-21T15:36:22Z</time>
      </trkpt>
      <trkpt lat="47.29252" lon="4.93156">
        <ele>560</ele>
        <time>2017-11-21T15:36:35Z</time>
      </trkpt>
      <trkpt lat="47.29261" lon="4.93154">
        <ele>562</ele>
        <time>2017-11-21T15:40:31Z</time>
      </trkpt>
      <trkpt lat="47.29267" lon="4.93165">
        <ele>562</ele>
        <time>2017-11-21T15:40:40Z</time>
      </trkpt>
      <trkpt lat="47.29274" lon="4.93173">
        <ele>557</ele>
        <time>2017-11-21T15:40:50Z</time>
      </trkpt>
      <trkpt lat="47.29282" lon="4.93184">
        <ele>557</ele>
        <time>2017-11-21T15:41:01Z</time>
      </trkpt>
      <trkpt lat="47.29289" lon="4.93193">
        <ele>558</ele>
        <time>2017-11-21T15:41:09Z</time>
      </trkpt>
      <trkpt lat="47.29296" lon="4.93201">
        <ele>558</ele>
        <time>2017-11-21T15:41:19Z</time>
      </trkpt>
      <trkpt lat="47.29303" lon="4.93212">
        <ele>558</ele>
        <time>2017-11-21T15:41:29Z</time>
      </trkpt>
      <trkpt lat="47.29308" lon="4.93224">
        <ele>558</ele>
        <time>2017-11-21T15:41:40Z</time>
      </trkpt>
      <trkpt lat="47.29316" lon="4.93233">
        <ele>558</ele>
        <time>2017-11-21T15:41:48Z</time>
      </trkpt>
      <trkpt lat="47.29322" lon="4.93242">
        <ele>559</ele>
        <time>2017-11-21T15:41:56Z</time>
      </trkpt>
      <trkpt lat="47.29331" lon="4.93247">
        <ele>560</ele>
        <time>2017-11-21T15:42:05Z</time>
      </trkpt>
      <trkpt lat="47.29339" lon="4.93252">
        <ele>560</ele>
        <time>2017-11-21T15:42:11Z</time>
      </trkpt>
      <trkpt lat="47.29349" lon="4.93257">
        <ele>558</ele>
        <time>2017-11-21T15:42:23Z</time>
      </trkpt>
      <trkpt lat="47.29356" lon="4.93267">
        <ele>557</ele>
        <time>2017-11-21T15:42:38Z</time>
      </trkpt>
      <trkpt lat="47.29364" lon="4.93273">
        <ele>557</ele>
        <time>2017-11-21T15:42:43Z</time>
      </trkpt>
      <trkpt lat="47.29373" lon="4.93281">
        <ele>556</ele>
        <time>2017-11-21T15:42:54Z</time>
      </trkpt>
      <trkpt lat="47.29381" lon="4.9329">
        <ele>556</ele>
        <time>2017-11-21T15:43:04Z</time>
      </trkpt>
      <trkpt lat="47.29388" lon="4.93299">
        <ele>555</ele>
        <time>2017-11-21T15:43:18Z</time>
      </trkpt>
      <trkpt lat="47.29393" lon="4.93311">
        <ele>555</ele>
        <time>2017-11-21T15:43:32Z</time>
      </trkpt>
      <trkpt lat="47.29401" lon="4.93318">
        <ele>554</ele>
        <time>2017-11-21T15:43:44Z</time>
      </trkpt>
      <trkpt lat="47.29409" lon="4.93326">
        <ele>554</ele>
        <time>2017-11-21T15:43:56Z</time>
      </trkpt>
      <trkpt lat="47.29417" lon="4.93333">
        <ele>553</ele>
        <time>2017-11-21T15:44:08Z</time>
      </trkpt>
      <trkpt lat="47.29425" lon="4.93342">
        <ele>550</ele>
        <time>2017-11-21T15:44:24Z</time>
      </trkpt>
      <trkpt lat="47.29433" lon="4.9335">
        <ele>548</ele>
        <time>2017-11-21T15:44:43Z</time>
      </trkpt>
      <trkpt lat="47.29441" lon="4.93357">
        <ele>546</ele>
        <time>2017-11-21T15:44:53Z</time>
      </trkpt>
      <trkpt lat="47.29449" lon="4.93364">
        <ele>546</ele>
        <time>2017-11-21T15:45:05Z</time>
      </trkpt>
      <trkpt lat="47.29456" lon="4.93373">
        <ele>545</ele>
        <time>2017-11-21T15:45:24Z</time>
      </trkpt>
      <trkpt lat="47.29463" lon="4.93382">
        <ele>544</ele>
        <time>2017-11-21T15:45:41Z</time>
      </trkpt>
      <trkpt lat="47.29469" lon="4.93393">
        <ele>543</ele>
        <time>2017-11-21T15:45:57Z</time>
      </trkpt>
      <trkpt lat="47.29477" lon="4.934">
        <ele>542</ele>
        <time>2017-11-21T15:46:13Z</time>
      </trkpt>
      <trkpt lat="47.29483" lon="4.93409">
        <ele>541</ele>
        <time>2017-11-21T15:46:31Z</time>
      </trkpt>
      <trkpt lat="47.2949" lon="4.93419">
        <ele>533</ele>
        <time>2017-11-21T15:46:42Z</time>
      </trkpt>
      <trkpt lat="47.29498" lon="4.93427">
        <ele>533</ele>
        <time>2017-11-21T15:46:54Z</time>
      </trkpt>
      <trkpt lat="47.29506" lon="4.93437">
        <ele>535</ele>
        <time>2017-11-21T15:47:04Z</time>
      </trkpt>
      <trkpt lat="47.29514" lon="4.93446">
        <ele>534</ele>
        <time>2017-11-21T15:47:14Z</time>
      </trkpt>
      <trkpt lat="47.2952" lon="4.93456">
        <ele>532</ele>
        <time>2017-11-21T15:47:36Z</time>
      </trkpt>
      <trkpt lat="47.29515" lon="4.93468">
        <ele>530</ele>
        <time>2017-11-21T15:48:18Z</time>
      </trkpt>
      <trkpt lat="47.29512" lon="4.9348">
        <ele>527</ele>
        <time>2017-11-21T15:48:27Z</time>
      </trkpt>
      <trkpt lat="47.29515" lon="4.93494">
        <ele>525</ele>
        <time>2017-11-21T15:48:40Z</time>
      </trkpt>
      <trkpt lat="47.29518" lon="4.93507">
        <ele>516</ele>
        <time>2017-11-21T15:48:52Z</time>
      </trkpt>
      <trkpt lat="47.29523" lon="4.93518">
        <ele>516</ele>
        <time>2017-11-21T15:48:58Z</time>
      </trkpt>
      <trkpt lat="47.29528" lon="4.93531">
        <ele>514</ele>
        <time>2017-11-21T15:49:12Z</time>
      </trkpt>
      <trkpt lat="47.29531" lon="4.93545">
        <ele>513</ele>
        <time>2017-11-21T15:49:22Z</time>
      </trkpt>
      <trkpt lat="47.29533" lon="4.9356">
        <ele>511</ele>
        <time>2017-11-21T15:49:31Z</time>
      </trkpt>
      <trkpt lat="47.29538" lon="4.93574">
        <ele>511</ele>
        <time>2017-11-21T15:49:38Z</time>
      </trkpt>
      <trkpt lat="47.29541" lon="4.93587">
        <ele>501</ele>
        <time>2017-11-21T15:49:46Z</time>
      </trkpt>
      <trkpt lat="47.29544" lon="4.93601">
        <ele>500</ele>
        <time>2017-11-21T15:49:52Z</time>
      </trkpt>
      <trkpt lat="47.29548" lon="4.93615">
        <ele>500</ele>
        <time>2017-11-21T15:50:03Z</time>
      </trkpt>
      <trkpt lat="47.29554" lon="4.93625">
        <ele>499</ele>
        <time>2017-11-21T15:50:10Z</time>
      </trkpt>
      <trkpt lat="47.2956" lon="4.93637">
        <ele>498</ele>
        <time>2017-11-21T15:50:17Z</time>
      </trkpt>
      <trkpt lat="47.29566" lon="4.93647">
        <ele>498</ele>
        <time>2017-11-21T15:50:23Z</time>
      </trkpt>
      <trkpt lat="47.2957" lon="4.93659">
        <ele>497</ele>
        <time>2017-11-21T15:50:31Z</time>
      </trkpt>
      <trkpt lat="47.29578" lon="4.93669">
        <ele>494</ele>
        <time>2017-11-21T15:50:38Z</time>
      </trkpt>
      <trkpt lat="47.29585" lon="4.9368">
        <ele>493</ele>
        <time>2017-11-21T15:50:45Z</time>
      </trkpt>
      <trkpt lat="47.29593" lon="4.9369">
        <ele>492</ele>
        <time>2017-11-21T15:50:52Z</time>
      </trkpt>
      <trkpt lat="47.2959" lon="4.93702">
        <ele>490</ele>
        <time>2017-11-21T15:50:59Z</time>
      </trkpt>
      <trkpt lat="47.29581" lon="4.93706">
        <ele>488</ele>
        <time>2017-11-21T15:51:10Z</time>
      </trkpt>
      <trkpt lat="47.2957" lon="4.93709">
        <ele>488</ele>
        <time>2017-11-21T15:51:18Z</time>
      </trkpt>
      <trkpt lat="47.2956" lon="4.93712">
        <ele>487</ele>
        <time>2017-11-21T15:51:25Z</time>
      </trkpt>
      <trkpt lat="47.2955" lon="4.93711">
        <ele>487</ele>
        <time>2017-11-21T15:51:32Z</time>
      </trkpt>
      <trkpt lat="47.29541" lon="4.93709">
        <ele>487</ele>
        <time>2017-11-21T15:51:40Z</time>
      </trkpt>
      <trkpt lat="47.29532" lon="4.93711">
        <ele>487</ele>
        <time>2017-11-21T15:51:46Z</time>
      </trkpt>
      <trkpt lat="47.29523" lon="4.93711">
        <ele>486</ele>
        <time>2017-11-21T15:51:52Z</time>
      </trkpt>
      <trkpt lat="47.29513" lon="4.93713">
        <ele>486</ele>
        <time>2017-11-21T15:51:58Z</time>
      </trkpt>
      <trkpt lat="47.29503" lon="4.93712">
        <ele>486</ele>
        <time>2017-11-21T15:52:05Z</time>
      </trkpt>
      <trkpt lat="47.29494" lon="4.93715">
        <ele>485</ele>
        <time>2017-11-21T15:52:10Z</time>
      </trkpt>
      <trkpt lat="47.29485" lon="4.93716">
        <ele>485</ele>
        <time>2017-11-21T15:52:15Z</time>
      </trkpt>
      <trkpt lat="47.29476" lon="4.93724">
        <ele>484</ele>
        <time>2017-11-21T15:52:24Z</time>
      </trkpt>
      <trkpt lat="47.29474" lon="4.93738">
        <ele>484</ele>
        <time>2017-11-21T15:52:30Z</time>
      </trkpt>
      <trkpt lat="47.2947" lon="4.93751">
        <ele>479</ele>
        <time>2017-11-21T15:52:37Z</time>
      </trkpt>
      <trkpt lat="47.29468" lon="4.93765">
        <ele>479</ele>
        <time>2017-11-21T15:52:49Z</time>
      </trkpt>
      <trkpt lat="47.29463" lon="4.93777">
        <ele>479</ele>
        <time>2017-11-21T15:52:57Z</time>
      </trkpt>
      <trkpt lat="47.29454" lon="4.93783">
        <ele>479</ele>
        <time>2017-11-21T15:53:03Z</time>
      </trkpt>
      <trkpt lat="47.29445" lon="4.93789">
        <ele>479</ele>
        <time>2017-11-21T15:53:13Z</time>
      </trkpt>
      <trkpt lat="47.29427" lon="4.93814">
        <ele>478</ele>
      </trkpt>
      <trkpt lat="47.29414" lon="4.93844">
        <ele>475</ele>
      </trkpt>
      <trkpt lat="47.29412" lon="4.93845">
        <ele>475</ele>
      </trkpt>
    </trkseg>
  </trk>
</gpx>